<?xml version="1.0" encoding="UTF-8" standalone="no" ?>
<gpx xmlns="http://www.topografix.com/GPX/1/1" xmlns:xsi="http://www.w3.org/2001/XMLSchema-instance" xsi:schemaLocation="http://www.topografix.com/GPX/1/1 http://www.topografix.com/GPX/1/1/gpx.xsd" version="1.1" creator="VisuGPX - https://www.visugpx.com">
  <metadata>
    <name>Tour du Néouvielle en VTT</name>
    <desc><![CDATA[Tentative de tracé pour faire le tour du Néouvielle en VTT. A tester en vrai !]]></desc>
  </metadata>
  <trk>
    <name><![CDATA[OR-6288312--Vielle-Aure:GRP VTT]]></name>
    <trkseg>
      <trkpt lat="42.81366" lon="0.2908">
        <ele>1644</ele>
        <time>2016-07-02T21:47:21Z</time>
      </trkpt>
      <trkpt lat="42.81368" lon="0.28827">
        <ele>1676</ele>
        <time>2016-07-02T21:49:21Z</time>
      </trkpt>
      <trkpt lat="42.81415" lon="0.28653">
        <ele>1705</ele>
        <time>2016-07-02T21:51:21Z</time>
      </trkpt>
      <trkpt lat="42.81625" lon="0.28442">
        <ele>1724</ele>
        <time>2016-07-02T21:53:21Z</time>
      </trkpt>
      <trkpt lat="42.81776" lon="0.28412">
        <ele>1720</ele>
        <time>2016-07-02T21:55:21Z</time>
      </trkpt>
      <trkpt lat="42.81843" lon="0.28167">
        <ele>1736</ele>
        <time>2016-07-02T21:57:21Z</time>
      </trkpt>
      <trkpt lat="42.81844" lon="0.27994">
        <ele>1752</ele>
        <time>2016-07-02T21:59:21Z</time>
      </trkpt>
      <trkpt lat="42.81867" lon="0.27847">
        <ele>1766</ele>
        <time>2016-07-02T22:01:21Z</time>
      </trkpt>
      <trkpt lat="42.81889" lon="0.27714">
        <ele>1784</ele>
        <time>2016-07-02T22:03:21Z</time>
      </trkpt>
      <trkpt lat="42.81874" lon="0.27616">
        <ele>1801</ele>
        <time>2016-07-02T22:05:21Z</time>
      </trkpt>
      <trkpt lat="42.81886" lon="0.27535">
        <ele>1816</ele>
        <time>2016-07-02T22:07:21Z</time>
      </trkpt>
      <trkpt lat="42.8193" lon="0.27472">
        <ele>1826</ele>
        <time>2016-07-02T22:09:21Z</time>
      </trkpt>
      <trkpt lat="42.82024" lon="0.27446">
        <ele>1823</ele>
        <time>2016-07-02T22:11:21Z</time>
      </trkpt>
      <trkpt lat="42.82044" lon="0.27388">
        <ele>1836</ele>
        <time>2016-07-02T22:13:21Z</time>
      </trkpt>
      <trkpt lat="42.82059" lon="0.27297">
        <ele>1847</ele>
        <time>2016-07-02T22:15:21Z</time>
      </trkpt>
      <trkpt lat="42.82045" lon="0.27107">
        <ele>1849</ele>
        <time>2016-07-02T22:17:21Z</time>
      </trkpt>
      <trkpt lat="42.82042" lon="0.26985">
        <ele>1848</ele>
        <time>2016-07-02T22:19:21Z</time>
      </trkpt>
      <trkpt lat="42.82038" lon="0.26945">
        <ele>1850</ele>
        <time>2016-07-02T22:21:21Z</time>
      </trkpt>
      <trkpt lat="42.82028" lon="0.26888">
        <ele>1852</ele>
        <time>2016-07-02T22:23:21Z</time>
      </trkpt>
      <trkpt lat="42.81954" lon="0.2674">
        <ele>1877</ele>
        <time>2016-07-02T22:25:21Z</time>
      </trkpt>
      <trkpt lat="42.81953" lon="0.26568">
        <ele>1893</ele>
        <time>2016-07-02T22:27:21Z</time>
      </trkpt>
      <trkpt lat="42.82007" lon="0.26351">
        <ele>1901</ele>
        <time>2016-07-02T22:29:21Z</time>
      </trkpt>
      <trkpt lat="42.82083" lon="0.26297">
        <ele>1898</ele>
        <time>2016-07-02T22:31:21Z</time>
      </trkpt>
      <trkpt lat="42.82099" lon="0.26245">
        <ele>1880</ele>
        <time>2016-07-02T22:33:21Z</time>
      </trkpt>
      <trkpt lat="42.82097" lon="0.26193">
        <ele>1873</ele>
        <time>2016-07-02T22:35:21Z</time>
      </trkpt>
      <trkpt lat="42.82094" lon="0.26161">
        <ele>1876</ele>
        <time>2016-07-02T22:37:21Z</time>
      </trkpt>
      <trkpt lat="42.82085" lon="0.26121">
        <ele>1865</ele>
        <time>2016-07-02T22:39:21Z</time>
      </trkpt>
      <trkpt lat="42.82091" lon="0.26084">
        <ele>1872</ele>
        <time>2016-07-02T22:41:21Z</time>
      </trkpt>
      <trkpt lat="42.82071" lon="0.26024">
        <ele>1897</ele>
        <time>2016-07-02T22:43:21Z</time>
      </trkpt>
      <trkpt lat="42.82074" lon="0.25959">
        <ele>1891</ele>
        <time>2016-07-02T22:45:21Z</time>
      </trkpt>
      <trkpt lat="42.8206" lon="0.259">
        <ele>1885</ele>
        <time>2016-07-02T22:47:21Z</time>
      </trkpt>
      <trkpt lat="42.82113" lon="0.25764">
        <ele>1854</ele>
        <time>2016-07-02T22:49:21Z</time>
      </trkpt>
      <trkpt lat="42.82138" lon="0.25695">
        <ele>1856</ele>
        <time>2016-07-02T22:51:21Z</time>
      </trkpt>
      <trkpt lat="42.82138" lon="0.25569">
        <ele>1867</ele>
        <time>2016-07-02T22:53:21Z</time>
      </trkpt>
      <trkpt lat="42.82172" lon="0.25515">
        <ele>1840</ele>
        <time>2016-07-02T22:55:21Z</time>
      </trkpt>
      <trkpt lat="42.82203" lon="0.25464">
        <ele>1839</ele>
        <time>2016-07-02T22:57:21Z</time>
      </trkpt>
      <trkpt lat="42.82216" lon="0.25406">
        <ele>1853</ele>
        <time>2016-07-02T22:59:21Z</time>
      </trkpt>
      <trkpt lat="42.82277" lon="0.25342">
        <ele>1827</ele>
        <time>2016-07-02T23:01:21Z</time>
      </trkpt>
      <trkpt lat="42.82366" lon="0.2527">
        <ele>1818</ele>
        <time>2016-07-02T23:03:21Z</time>
      </trkpt>
      <trkpt lat="42.82499" lon="0.25155">
        <ele>1816</ele>
        <time>2016-07-02T23:05:21Z</time>
      </trkpt>
      <trkpt lat="42.82549" lon="0.24909">
        <ele>1846</ele>
        <time>2016-07-02T23:07:21Z</time>
      </trkpt>
      <trkpt lat="42.8257" lon="0.24842">
        <ele>1855</ele>
        <time>2016-07-02T23:09:21Z</time>
      </trkpt>
      <trkpt lat="42.82712" lon="0.24908">
        <ele>1859</ele>
        <time>2016-07-02T23:11:21Z</time>
      </trkpt>
      <trkpt lat="42.82835" lon="0.24932">
        <ele>1864</ele>
        <time>2016-07-02T23:13:21Z</time>
      </trkpt>
      <trkpt lat="42.8293" lon="0.24823">
        <ele>1897</ele>
        <time>2016-07-02T23:15:21Z</time>
      </trkpt>
      <trkpt lat="42.83021" lon="0.24703">
        <ele>1929</ele>
        <time>2016-07-02T23:17:21Z</time>
      </trkpt>
      <trkpt lat="42.83194" lon="0.2468">
        <ele>1942</ele>
        <time>2016-07-02T23:19:21Z</time>
      </trkpt>
      <trkpt lat="42.83313" lon="0.24464">
        <ele>1984</ele>
        <time>2016-07-02T23:21:21Z</time>
      </trkpt>
      <trkpt lat="42.83352" lon="0.24644">
        <ele>1994</ele>
        <time>2016-07-02T23:23:21Z</time>
      </trkpt>
      <trkpt lat="42.83348" lon="0.24767">
        <ele>1993</ele>
        <time>2016-07-02T23:25:21Z</time>
      </trkpt>
      <trkpt lat="42.83407" lon="0.24915">
        <ele>2008</ele>
        <time>2016-07-02T23:27:21Z</time>
      </trkpt>
      <trkpt lat="42.83387" lon="0.25044">
        <ele>2014</ele>
        <time>2016-07-02T23:29:21Z</time>
      </trkpt>
      <trkpt lat="42.83448" lon="0.25005">
        <ele>2038</ele>
        <time>2016-07-02T23:31:21Z</time>
      </trkpt>
      <trkpt lat="42.83481" lon="0.24782">
        <ele>2037</ele>
        <time>2016-07-02T23:33:21Z</time>
      </trkpt>
      <trkpt lat="42.83434" lon="0.24732">
        <ele>2034</ele>
        <time>2016-07-02T23:35:21Z</time>
      </trkpt>
      <trkpt lat="42.8347" lon="0.24408">
        <ele>2060</ele>
        <time>2016-07-02T23:37:21Z</time>
      </trkpt>
      <trkpt lat="42.83518" lon="0.24234">
        <ele>2096</ele>
        <time>2016-07-02T23:39:21Z</time>
      </trkpt>
      <trkpt lat="42.83477" lon="0.24104">
        <ele>2087</ele>
        <time>2016-07-02T23:41:21Z</time>
      </trkpt>
      <trkpt lat="42.83556" lon="0.24186">
        <ele>2112</ele>
        <time>2016-07-02T23:43:21Z</time>
      </trkpt>
      <trkpt lat="42.83513" lon="0.24027">
        <ele>2125</ele>
        <time>2016-07-02T23:45:21Z</time>
      </trkpt>
      <trkpt lat="42.83409" lon="0.23863">
        <ele>2140</ele>
        <time>2016-07-02T23:47:21Z</time>
      </trkpt>
      <trkpt lat="42.83172" lon="0.23961">
        <ele>2145</ele>
        <time>2016-07-02T23:49:21Z</time>
      </trkpt>
      <trkpt lat="42.83031" lon="0.24108">
        <ele>2162</ele>
        <time>2016-07-02T23:51:21Z</time>
      </trkpt>
      <trkpt lat="42.83308" lon="0.23616">
        <ele>2217</ele>
        <time>2016-07-02T23:53:21Z</time>
      </trkpt>
      <trkpt lat="42.83144" lon="0.23309">
        <ele>2194</ele>
        <time>2016-07-02T23:55:21Z</time>
      </trkpt>
      <trkpt lat="42.83136" lon="0.22955">
        <ele>2178</ele>
        <time>2016-07-02T23:57:21Z</time>
      </trkpt>
      <trkpt lat="42.83424" lon="0.22935">
        <ele>2175</ele>
        <time>2016-07-02T23:59:21Z</time>
      </trkpt>
      <trkpt lat="42.83453" lon="0.22728">
        <ele>2158</ele>
        <time>2016-07-03T00:01:21Z</time>
      </trkpt>
      <trkpt lat="42.83483" lon="0.2259">
        <ele>2158</ele>
        <time>2016-07-03T00:03:21Z</time>
      </trkpt>
      <trkpt lat="42.83388" lon="0.22545">
        <ele>2157</ele>
        <time>2016-07-03T00:05:21Z</time>
      </trkpt>
      <trkpt lat="42.8333" lon="0.22432">
        <ele>2158</ele>
        <time>2016-07-03T00:07:21Z</time>
      </trkpt>
      <trkpt lat="42.83243" lon="0.22238">
        <ele>2152</ele>
        <time>2016-07-03T00:09:21Z</time>
      </trkpt>
      <trkpt lat="42.83204" lon="0.21972">
        <ele>2138</ele>
        <time>2016-07-03T00:11:21Z</time>
      </trkpt>
      <trkpt lat="42.83194" lon="0.21844">
        <ele>2136</ele>
        <time>2016-07-03T00:13:21Z</time>
      </trkpt>
      <trkpt lat="42.83173" lon="0.21756">
        <ele>2136</ele>
        <time>2016-07-03T00:15:21Z</time>
      </trkpt>
      <trkpt lat="42.83163" lon="0.21661">
        <ele>2142</ele>
        <time>2016-07-03T00:17:21Z</time>
      </trkpt>
      <trkpt lat="42.83161" lon="0.2156">
        <ele>2143</ele>
        <time>2016-07-03T00:19:21Z</time>
      </trkpt>
      <trkpt lat="42.83143" lon="0.21461">
        <ele>2142</ele>
        <time>2016-07-03T00:21:21Z</time>
      </trkpt>
      <trkpt lat="42.83116" lon="0.21358">
        <ele>2143</ele>
        <time>2016-07-03T00:23:21Z</time>
      </trkpt>
      <trkpt lat="42.83114" lon="0.21259">
        <ele>2138</ele>
        <time>2016-07-03T00:25:21Z</time>
      </trkpt>
      <trkpt lat="42.83168" lon="0.21207">
        <ele>2155</ele>
        <time>2016-07-03T00:27:21Z</time>
      </trkpt>
      <trkpt lat="42.83165" lon="0.2107">
        <ele>2129</ele>
        <time>2016-07-03T00:29:21Z</time>
      </trkpt>
      <trkpt lat="42.83213" lon="0.2102">
        <ele>2140</ele>
        <time>2016-07-03T00:31:21Z</time>
      </trkpt>
      <trkpt lat="42.83275" lon="0.20993">
        <ele>2131</ele>
        <time>2016-07-03T00:33:21Z</time>
      </trkpt>
      <trkpt lat="42.83336" lon="0.20966">
        <ele>2136</ele>
        <time>2016-07-03T00:35:21Z</time>
      </trkpt>
      <trkpt lat="42.834" lon="0.20949">
        <ele>2136</ele>
        <time>2016-07-03T00:37:21Z</time>
      </trkpt>
      <trkpt lat="42.83463" lon="0.20931">
        <ele>2148</ele>
        <time>2016-07-03T00:39:21Z</time>
      </trkpt>
      <trkpt lat="42.83527" lon="0.20904">
        <ele>2128</ele>
        <time>2016-07-03T00:41:21Z</time>
      </trkpt>
      <trkpt lat="42.83583" lon="0.20869">
        <ele>2124</ele>
        <time>2016-07-03T00:43:21Z</time>
      </trkpt>
      <trkpt lat="42.83641" lon="0.20867">
        <ele>2126</ele>
        <time>2016-07-03T00:45:21Z</time>
      </trkpt>
      <trkpt lat="42.83706" lon="0.20852">
        <ele>2127</ele>
        <time>2016-07-03T00:47:21Z</time>
      </trkpt>
      <trkpt lat="42.83778" lon="0.20846">
        <ele>2141</ele>
        <time>2016-07-03T00:49:21Z</time>
      </trkpt>
      <trkpt lat="42.83845" lon="0.20832">
        <ele>2142</ele>
        <time>2016-07-03T00:51:21Z</time>
      </trkpt>
      <trkpt lat="42.83914" lon="0.20823">
        <ele>2144</ele>
        <time>2016-07-03T00:53:21Z</time>
      </trkpt>
      <trkpt lat="42.83979" lon="0.20811">
        <ele>2138</ele>
        <time>2016-07-03T00:55:21Z</time>
      </trkpt>
      <trkpt lat="42.84038" lon="0.20837">
        <ele>2141</ele>
        <time>2016-07-03T00:57:21Z</time>
      </trkpt>
      <trkpt lat="42.84101" lon="0.2085">
        <ele>2135</ele>
        <time>2016-07-03T00:59:21Z</time>
      </trkpt>
      <trkpt lat="42.84158" lon="0.20887">
        <ele>2136</ele>
        <time>2016-07-03T01:01:21Z</time>
      </trkpt>
      <trkpt lat="42.84272" lon="0.20956">
        <ele>2148</ele>
        <time>2016-07-03T01:03:21Z</time>
      </trkpt>
      <trkpt lat="42.84335" lon="0.20975">
        <ele>2155</ele>
        <time>2016-07-03T01:05:21Z</time>
      </trkpt>
      <trkpt lat="42.84405" lon="0.20985">
        <ele>2160</ele>
        <time>2016-07-03T01:07:21Z</time>
      </trkpt>
      <trkpt lat="42.84466" lon="0.21013">
        <ele>2175</ele>
        <time>2016-07-03T01:09:21Z</time>
      </trkpt>
      <trkpt lat="42.84515" lon="0.2107">
        <ele>2182</ele>
        <time>2016-07-03T01:11:21Z</time>
      </trkpt>
      <trkpt lat="42.84561" lon="0.21129">
        <ele>2188</ele>
        <time>2016-07-03T01:13:21Z</time>
      </trkpt>
      <trkpt lat="42.84609" lon="0.21182">
        <ele>2195</ele>
        <time>2016-07-03T01:15:21Z</time>
      </trkpt>
      <trkpt lat="42.84655" lon="0.21238">
        <ele>2198</ele>
        <time>2016-07-03T01:17:21Z</time>
      </trkpt>
      <trkpt lat="42.84721" lon="0.2126">
        <ele>2207</ele>
        <time>2016-07-03T01:19:21Z</time>
      </trkpt>
      <trkpt lat="42.84767" lon="0.21314">
        <ele>2212</ele>
        <time>2016-07-03T01:21:21Z</time>
      </trkpt>
      <trkpt lat="42.84819" lon="0.21345">
        <ele>2221</ele>
        <time>2016-07-03T01:23:21Z</time>
      </trkpt>
      <trkpt lat="42.84874" lon="0.21304">
        <ele>2222</ele>
        <time>2016-07-03T01:25:21Z</time>
      </trkpt>
      <trkpt lat="42.8491" lon="0.21272">
        <ele>2221</ele>
        <time>2016-07-03T01:27:21Z</time>
      </trkpt>
      <trkpt lat="42.8497" lon="0.21251">
        <ele>2230</ele>
        <time>2016-07-03T01:29:21Z</time>
      </trkpt>
      <trkpt lat="42.8503" lon="0.21219">
        <ele>2229</ele>
        <time>2016-07-03T01:31:21Z</time>
      </trkpt>
      <trkpt lat="42.85097" lon="0.21204">
        <ele>2235</ele>
        <time>2016-07-03T01:33:21Z</time>
      </trkpt>
      <trkpt lat="42.85217" lon="0.21138">
        <ele>2234</ele>
        <time>2016-07-03T01:35:21Z</time>
      </trkpt>
      <trkpt lat="42.85268" lon="0.21097">
        <ele>2246</ele>
        <time>2016-07-03T01:37:21Z</time>
      </trkpt>
      <trkpt lat="42.85312" lon="0.21043">
        <ele>2246</ele>
        <time>2016-07-03T01:39:21Z</time>
      </trkpt>
      <trkpt lat="42.85364" lon="0.20989">
        <ele>2247</ele>
        <time>2016-07-03T01:41:21Z</time>
      </trkpt>
      <trkpt lat="42.85432" lon="0.20981">
        <ele>2255</ele>
        <time>2016-07-03T01:43:21Z</time>
      </trkpt>
      <trkpt lat="42.85506" lon="0.20975">
        <ele>2261</ele>
        <time>2016-07-03T01:45:21Z</time>
      </trkpt>
      <trkpt lat="42.85559" lon="0.2093">
        <ele>2263</ele>
        <time>2016-07-03T01:47:21Z</time>
      </trkpt>
      <trkpt lat="42.85593" lon="0.20849">
        <ele>2273</ele>
        <time>2016-07-03T01:49:21Z</time>
      </trkpt>
      <trkpt lat="42.85595" lon="0.20754">
        <ele>2284</ele>
        <time>2016-07-03T01:51:21Z</time>
      </trkpt>
      <trkpt lat="42.85655" lon="0.20707">
        <ele>2295</ele>
        <time>2016-07-03T01:53:21Z</time>
      </trkpt>
      <trkpt lat="42.85676" lon="0.20627">
        <ele>2310</ele>
        <time>2016-07-03T01:55:21Z</time>
      </trkpt>
      <trkpt lat="42.85719" lon="0.20557">
        <ele>2317</ele>
        <time>2016-07-03T01:57:21Z</time>
      </trkpt>
      <trkpt lat="42.85751" lon="0.20493">
        <ele>2320</ele>
        <time>2016-07-03T01:59:21Z</time>
      </trkpt>
      <trkpt lat="42.85735" lon="0.20425">
        <ele>2320</ele>
        <time>2016-07-03T02:01:21Z</time>
      </trkpt>
      <trkpt lat="42.85697" lon="0.20363">
        <ele>2309</ele>
        <time>2016-07-03T02:03:21Z</time>
      </trkpt>
      <trkpt lat="42.85667" lon="0.20288">
        <ele>2283</ele>
        <time>2016-07-03T02:05:21Z</time>
      </trkpt>
      <trkpt lat="42.85635" lon="0.20248">
        <ele>2266</ele>
        <time>2016-07-03T02:07:21Z</time>
      </trkpt>
      <trkpt lat="42.85656" lon="0.20202">
        <ele>2260</ele>
        <time>2016-07-03T02:09:21Z</time>
      </trkpt>
      <trkpt lat="42.85704" lon="0.20162">
        <ele>2232</ele>
        <time>2016-07-03T02:11:21Z</time>
      </trkpt>
      <trkpt lat="42.85725" lon="0.20105">
        <ele>2224</ele>
        <time>2016-07-03T02:13:21Z</time>
      </trkpt>
      <trkpt lat="42.85754" lon="0.20013">
        <ele>2208</ele>
        <time>2016-07-03T02:15:21Z</time>
      </trkpt>
      <trkpt lat="42.85804" lon="0.19963">
        <ele>2209</ele>
        <time>2016-07-03T02:17:21Z</time>
      </trkpt>
      <trkpt lat="42.8586" lon="0.19921">
        <ele>2225</ele>
        <time>2016-07-03T02:19:21Z</time>
      </trkpt>
      <trkpt lat="42.85919" lon="0.19861">
        <ele>2247</ele>
        <time>2016-07-03T02:21:21Z</time>
      </trkpt>
      <trkpt lat="42.85981" lon="0.19834">
        <ele>2255</ele>
        <time>2016-07-03T02:23:21Z</time>
      </trkpt>
      <trkpt lat="42.86016" lon="0.19778">
        <ele>2263</ele>
        <time>2016-07-03T02:25:21Z</time>
      </trkpt>
      <trkpt lat="42.86019" lon="0.19684">
        <ele>2257</ele>
        <time>2016-07-03T02:27:21Z</time>
      </trkpt>
      <trkpt lat="42.86058" lon="0.19615">
        <ele>2256</ele>
        <time>2016-07-03T02:29:21Z</time>
      </trkpt>
      <trkpt lat="42.86093" lon="0.19558">
        <ele>2262</ele>
        <time>2016-07-03T02:31:21Z</time>
      </trkpt>
      <trkpt lat="42.86115" lon="0.19492">
        <ele>2257</ele>
        <time>2016-07-03T02:33:21Z</time>
      </trkpt>
      <trkpt lat="42.8617" lon="0.19423">
        <ele>2267</ele>
        <time>2016-07-03T02:35:21Z</time>
      </trkpt>
      <trkpt lat="42.86228" lon="0.19381">
        <ele>2266</ele>
        <time>2016-07-03T02:37:21Z</time>
      </trkpt>
      <trkpt lat="42.86281" lon="0.19333">
        <ele>2259</ele>
        <time>2016-07-03T02:39:21Z</time>
      </trkpt>
      <trkpt lat="42.86334" lon="0.19296">
        <ele>2262</ele>
        <time>2016-07-03T02:41:21Z</time>
      </trkpt>
      <trkpt lat="42.86386" lon="0.19258">
        <ele>2260</ele>
        <time>2016-07-03T02:43:21Z</time>
      </trkpt>
      <trkpt lat="42.86437" lon="0.19187">
        <ele>2257</ele>
        <time>2016-07-03T02:45:21Z</time>
      </trkpt>
      <trkpt lat="42.86493" lon="0.19148">
        <ele>2247</ele>
        <time>2016-07-03T02:47:21Z</time>
      </trkpt>
      <trkpt lat="42.86546" lon="0.19109">
        <ele>2245</ele>
        <time>2016-07-03T02:49:21Z</time>
      </trkpt>
      <trkpt lat="42.86595" lon="0.19068">
        <ele>2232</ele>
        <time>2016-07-03T02:51:21Z</time>
      </trkpt>
      <trkpt lat="42.86637" lon="0.19033">
        <ele>2227</ele>
        <time>2016-07-03T02:53:21Z</time>
      </trkpt>
      <trkpt lat="42.8665" lon="0.18955">
        <ele>2216</ele>
        <time>2016-07-03T02:55:21Z</time>
      </trkpt>
      <trkpt lat="42.86675" lon="0.18898">
        <ele>2216</ele>
        <time>2016-07-03T02:57:21Z</time>
      </trkpt>
      <trkpt lat="42.8675" lon="0.18846">
        <ele>2214</ele>
        <time>2016-07-03T02:59:21Z</time>
      </trkpt>
      <trkpt lat="42.86803" lon="0.18807">
        <ele>2218</ele>
        <time>2016-07-03T03:01:21Z</time>
      </trkpt>
      <trkpt lat="42.86873" lon="0.18747">
        <ele>2228</ele>
        <time>2016-07-03T03:03:21Z</time>
      </trkpt>
      <trkpt lat="42.86933" lon="0.18704">
        <ele>2245</ele>
        <time>2016-07-03T03:05:21Z</time>
      </trkpt>
      <trkpt lat="42.86993" lon="0.18674">
        <ele>2257</ele>
        <time>2016-07-03T03:07:21Z</time>
      </trkpt>
      <trkpt lat="42.8707" lon="0.18714">
        <ele>2278</ele>
        <time>2016-07-03T03:09:21Z</time>
      </trkpt>
      <trkpt lat="42.87108" lon="0.18671">
        <ele>2286</ele>
        <time>2016-07-03T03:11:21Z</time>
      </trkpt>
      <trkpt lat="42.87114" lon="0.18607">
        <ele>2288</ele>
        <time>2016-07-03T03:13:21Z</time>
      </trkpt>
      <trkpt lat="42.87136" lon="0.18597">
        <ele>2289</ele>
        <time>2016-07-03T03:15:21Z</time>
      </trkpt>
      <trkpt lat="42.87151" lon="0.18543">
        <ele>2291</ele>
        <time>2016-07-03T03:17:21Z</time>
      </trkpt>
      <trkpt lat="42.87146" lon="0.1851">
        <ele>2292</ele>
        <time>2016-07-03T03:19:21Z</time>
      </trkpt>
      <trkpt lat="42.87159" lon="0.18494">
        <ele>2292</ele>
        <time>2016-07-03T03:21:21Z</time>
      </trkpt>
      <trkpt lat="42.8717" lon="0.18432">
        <ele>2292</ele>
        <time>2016-07-03T03:23:21Z</time>
      </trkpt>
      <trkpt lat="42.87179" lon="0.18407">
        <ele>2292</ele>
        <time>2016-07-03T03:25:21Z</time>
      </trkpt>
      <trkpt lat="42.87177" lon="0.18387">
        <ele>2291</ele>
        <time>2016-07-03T03:27:21Z</time>
      </trkpt>
      <trkpt lat="42.87181" lon="0.18352">
        <ele>2290</ele>
        <time>2016-07-03T03:29:21Z</time>
      </trkpt>
      <trkpt lat="42.87179" lon="0.18338">
        <ele>2290</ele>
        <time>2016-07-03T03:31:21Z</time>
      </trkpt>
      <trkpt lat="42.87189" lon="0.18316">
        <ele>2293</ele>
        <time>2016-07-03T03:33:21Z</time>
      </trkpt>
      <trkpt lat="42.87186" lon="0.18289">
        <ele>2294</ele>
        <time>2016-07-03T03:35:21Z</time>
      </trkpt>
      <trkpt lat="42.87205" lon="0.18255">
        <ele>2297</ele>
        <time>2016-07-03T03:37:21Z</time>
      </trkpt>
      <trkpt lat="42.8723" lon="0.1822">
        <ele>2306</ele>
        <time>2016-07-03T03:39:21Z</time>
      </trkpt>
      <trkpt lat="42.87237" lon="0.1818">
        <ele>2311</ele>
        <time>2016-07-03T03:41:21Z</time>
      </trkpt>
      <trkpt lat="42.8722" lon="0.18165">
        <ele>2314</ele>
        <time>2016-07-03T03:43:21Z</time>
      </trkpt>
      <trkpt lat="42.87226" lon="0.18063">
        <ele>2323</ele>
        <time>2016-07-03T03:45:21Z</time>
      </trkpt>
      <trkpt lat="42.87211" lon="0.17939">
        <ele>2320</ele>
        <time>2016-07-03T03:47:21Z</time>
      </trkpt>
      <trkpt lat="42.87262" lon="0.17873">
        <ele>2334</ele>
        <time>2016-07-03T03:49:21Z</time>
      </trkpt>
      <trkpt lat="42.87317" lon="0.17788">
        <ele>2337</ele>
        <time>2016-07-03T03:51:21Z</time>
      </trkpt>
      <trkpt lat="42.87357" lon="0.17732">
        <ele>2361</ele>
        <time>2016-07-03T03:53:21Z</time>
      </trkpt>
      <trkpt lat="42.87402" lon="0.17646">
        <ele>2376</ele>
        <time>2016-07-03T03:55:21Z</time>
      </trkpt>
      <trkpt lat="42.87408" lon="0.17598">
        <ele>2383</ele>
        <time>2016-07-03T03:57:21Z</time>
      </trkpt>
      <trkpt lat="42.87402" lon="0.17576">
        <ele>2388</ele>
        <time>2016-07-03T03:59:21Z</time>
      </trkpt>
      <trkpt lat="42.87415" lon="0.17529">
        <ele>2392</ele>
        <time>2016-07-03T04:01:21Z</time>
      </trkpt>
      <trkpt lat="42.87402" lon="0.17495">
        <ele>2402</ele>
        <time>2016-07-03T04:03:21Z</time>
      </trkpt>
      <trkpt lat="42.87395" lon="0.17455">
        <ele>2401</ele>
        <time>2016-07-03T04:05:21Z</time>
      </trkpt>
      <trkpt lat="42.87395" lon="0.1739">
        <ele>2419</ele>
        <time>2016-07-03T04:07:21Z</time>
      </trkpt>
      <trkpt lat="42.87392" lon="0.17362">
        <ele>2423</ele>
        <time>2016-07-03T04:09:21Z</time>
      </trkpt>
      <trkpt lat="42.8737" lon="0.17305">
        <ele>2440</ele>
        <time>2016-07-03T04:11:21Z</time>
      </trkpt>
      <trkpt lat="42.87357" lon="0.17295">
        <ele>2439</ele>
        <time>2016-07-03T04:13:21Z</time>
      </trkpt>
      <trkpt lat="42.87353" lon="0.17286">
        <ele>2440</ele>
        <time>2016-07-03T04:15:21Z</time>
      </trkpt>
      <trkpt lat="42.87347" lon="0.17245">
        <ele>2449</ele>
        <time>2016-07-03T04:17:21Z</time>
      </trkpt>
      <trkpt lat="42.87358" lon="0.1721">
        <ele>2454</ele>
        <time>2016-07-03T04:19:21Z</time>
      </trkpt>
      <trkpt lat="42.87373" lon="0.1721">
        <ele>2455</ele>
        <time>2016-07-03T04:21:21Z</time>
      </trkpt>
      <trkpt lat="42.87384" lon="0.17212">
        <ele>2455</ele>
        <time>2016-07-03T04:23:21Z</time>
      </trkpt>
      <trkpt lat="42.87415" lon="0.17203">
        <ele>2454</ele>
        <time>2016-07-03T04:25:21Z</time>
      </trkpt>
      <trkpt lat="42.87434" lon="0.17192">
        <ele>2447</ele>
        <time>2016-07-03T04:27:21Z</time>
      </trkpt>
      <trkpt lat="42.87434" lon="0.17177">
        <ele>2445</ele>
        <time>2016-07-03T04:29:21Z</time>
      </trkpt>
      <trkpt lat="42.87439" lon="0.17176">
        <ele>2444</ele>
        <time>2016-07-03T04:31:21Z</time>
      </trkpt>
      <trkpt lat="42.87437" lon="0.17169">
        <ele>2444</ele>
        <time>2016-07-03T04:33:21Z</time>
      </trkpt>
      <trkpt lat="42.87442" lon="0.17165">
        <ele>2427</ele>
        <time>2016-07-03T04:35:21Z</time>
      </trkpt>
      <trkpt lat="42.87436" lon="0.17147">
        <ele>2426</ele>
        <time>2016-07-03T04:37:21Z</time>
      </trkpt>
      <trkpt lat="42.87457" lon="0.1714">
        <ele>2419</ele>
        <time>2016-07-03T04:39:21Z</time>
      </trkpt>
      <trkpt lat="42.87453" lon="0.17132">
        <ele>2419</ele>
        <time>2016-07-03T04:41:21Z</time>
      </trkpt>
      <trkpt lat="42.8746" lon="0.1713">
        <ele>2417</ele>
        <time>2016-07-03T04:43:21Z</time>
      </trkpt>
      <trkpt lat="42.87456" lon="0.17119">
        <ele>2416</ele>
        <time>2016-07-03T04:45:21Z</time>
      </trkpt>
      <trkpt lat="42.87477" lon="0.17121">
        <ele>2412</ele>
        <time>2016-07-03T04:47:21Z</time>
      </trkpt>
      <trkpt lat="42.87478" lon="0.17102">
        <ele>2407</ele>
        <time>2016-07-03T04:49:21Z</time>
      </trkpt>
      <trkpt lat="42.87487" lon="0.17103">
        <ele>2404</ele>
        <time>2016-07-03T04:51:21Z</time>
      </trkpt>
      <trkpt lat="42.87511" lon="0.17034">
        <ele>2370</ele>
        <time>2016-07-03T04:53:21Z</time>
      </trkpt>
      <trkpt lat="42.87526" lon="0.16985">
        <ele>2358</ele>
        <time>2016-07-03T04:55:21Z</time>
      </trkpt>
      <trkpt lat="42.87542" lon="0.16956">
        <ele>2352</ele>
        <time>2016-07-03T04:57:21Z</time>
      </trkpt>
      <trkpt lat="42.8755" lon="0.16929">
        <ele>2348</ele>
        <time>2016-07-03T04:59:21Z</time>
      </trkpt>
      <trkpt lat="42.87561" lon="0.16875">
        <ele>2336</ele>
        <time>2016-07-03T05:01:21Z</time>
      </trkpt>
      <trkpt lat="42.87574" lon="0.16854">
        <ele>2330</ele>
        <time>2016-07-03T05:03:21Z</time>
      </trkpt>
      <trkpt lat="42.87592" lon="0.1686">
        <ele>2320</ele>
        <time>2016-07-03T05:05:21Z</time>
      </trkpt>
      <trkpt lat="42.87598" lon="0.16791">
        <ele>2310</ele>
        <time>2016-07-03T05:07:21Z</time>
      </trkpt>
      <trkpt lat="42.87665" lon="0.16626">
        <ele>2294</ele>
        <time>2016-07-03T05:09:21Z</time>
      </trkpt>
      <trkpt lat="42.87727" lon="0.16421">
        <ele>2269</ele>
        <time>2016-07-03T05:11:21Z</time>
      </trkpt>
      <trkpt lat="42.87727" lon="0.16297">
        <ele>2258</ele>
        <time>2016-07-03T05:13:21Z</time>
      </trkpt>
      <trkpt lat="42.87778" lon="0.1611">
        <ele>2230</ele>
        <time>2016-07-03T05:15:21Z</time>
      </trkpt>
      <trkpt lat="42.87758" lon="0.15846">
        <ele>2213</ele>
        <time>2016-07-03T05:17:21Z</time>
      </trkpt>
      <trkpt lat="42.87669" lon="0.15626">
        <ele>2200</ele>
        <time>2016-07-03T05:19:21Z</time>
      </trkpt>
      <trkpt lat="42.87617" lon="0.15465">
        <ele>2174</ele>
        <time>2016-07-03T05:21:21Z</time>
      </trkpt>
      <trkpt lat="42.87601" lon="0.15219">
        <ele>2160</ele>
        <time>2016-07-03T05:23:21Z</time>
      </trkpt>
      <trkpt lat="42.8753" lon="0.15187">
        <ele>2155</ele>
        <time>2016-07-03T05:25:21Z</time>
      </trkpt>
      <trkpt lat="42.87513" lon="0.15159">
        <ele>2152</ele>
        <time>2016-07-03T05:27:21Z</time>
      </trkpt>
      <trkpt lat="42.87369" lon="0.1509">
        <ele>2151</ele>
        <time>2016-07-03T05:29:21Z</time>
      </trkpt>
      <trkpt lat="42.87328" lon="0.1508">
        <ele>2146</ele>
        <time>2016-07-03T05:31:21Z</time>
      </trkpt>
      <trkpt lat="42.87288" lon="0.1508">
        <ele>2149</ele>
        <time>2016-07-03T05:33:21Z</time>
      </trkpt>
      <trkpt lat="42.87244" lon="0.1509">
        <ele>2161</ele>
        <time>2016-07-03T05:35:21Z</time>
      </trkpt>
      <trkpt lat="42.87213" lon="0.15068">
        <ele>2162</ele>
        <time>2016-07-03T05:37:21Z</time>
      </trkpt>
      <trkpt lat="42.87179" lon="0.15034">
        <ele>2165</ele>
        <time>2016-07-03T05:39:21Z</time>
      </trkpt>
      <trkpt lat="42.8714" lon="0.1501">
        <ele>2182</ele>
        <time>2016-07-03T05:41:21Z</time>
      </trkpt>
      <trkpt lat="42.87103" lon="0.1499">
        <ele>2195</ele>
        <time>2016-07-03T05:43:21Z</time>
      </trkpt>
      <trkpt lat="42.87066" lon="0.1501">
        <ele>2207</ele>
        <time>2016-07-03T05:45:21Z</time>
      </trkpt>
      <trkpt lat="42.87027" lon="0.15041">
        <ele>2214</ele>
        <time>2016-07-03T05:47:21Z</time>
      </trkpt>
      <trkpt lat="42.86996" lon="0.15017">
        <ele>2222</ele>
        <time>2016-07-03T05:49:21Z</time>
      </trkpt>
      <trkpt lat="42.8696" lon="0.15017">
        <ele>2225</ele>
        <time>2016-07-03T05:51:21Z</time>
      </trkpt>
      <trkpt lat="42.86946" lon="0.14968">
        <ele>2230</ele>
        <time>2016-07-03T05:53:21Z</time>
      </trkpt>
      <trkpt lat="42.8694" lon="0.14894">
        <ele>2243</ele>
        <time>2016-07-03T05:55:21Z</time>
      </trkpt>
      <trkpt lat="42.8691" lon="0.1488">
        <ele>2261</ele>
        <time>2016-07-03T05:57:21Z</time>
      </trkpt>
      <trkpt lat="42.86902" lon="0.1483">
        <ele>2265</ele>
        <time>2016-07-03T05:59:21Z</time>
      </trkpt>
      <trkpt lat="42.86871" lon="0.14811">
        <ele>2275</ele>
        <time>2016-07-03T06:01:21Z</time>
      </trkpt>
      <trkpt lat="42.86839" lon="0.14812">
        <ele>2281</ele>
        <time>2016-07-03T06:03:21Z</time>
      </trkpt>
      <trkpt lat="42.868" lon="0.1479">
        <ele>2295</ele>
        <time>2016-07-03T06:05:21Z</time>
      </trkpt>
      <trkpt lat="42.86772" lon="0.14763">
        <ele>2298</ele>
        <time>2016-07-03T06:07:21Z</time>
      </trkpt>
      <trkpt lat="42.86761" lon="0.14713">
        <ele>2301</ele>
        <time>2016-07-03T06:09:21Z</time>
      </trkpt>
      <trkpt lat="42.86746" lon="0.14678">
        <ele>2307</ele>
        <time>2016-07-03T06:11:21Z</time>
      </trkpt>
      <trkpt lat="42.86709" lon="0.14652">
        <ele>2308</ele>
        <time>2016-07-03T06:13:21Z</time>
      </trkpt>
      <trkpt lat="42.86682" lon="0.1462">
        <ele>2308</ele>
        <time>2016-07-03T06:15:21Z</time>
      </trkpt>
      <trkpt lat="42.86658" lon="0.1459">
        <ele>2310</ele>
        <time>2016-07-03T06:17:21Z</time>
      </trkpt>
      <trkpt lat="42.86636" lon="0.14555">
        <ele>2310</ele>
        <time>2016-07-03T06:19:21Z</time>
      </trkpt>
      <trkpt lat="42.86624" lon="0.14513">
        <ele>2310</ele>
        <time>2016-07-03T06:21:21Z</time>
      </trkpt>
      <trkpt lat="42.86585" lon="0.14506">
        <ele>2313</ele>
        <time>2016-07-03T06:23:21Z</time>
      </trkpt>
      <trkpt lat="42.86588" lon="0.14477">
        <ele>2312</ele>
        <time>2016-07-03T06:25:21Z</time>
      </trkpt>
      <trkpt lat="42.86545" lon="0.14464">
        <ele>2324</ele>
        <time>2016-07-03T06:27:21Z</time>
      </trkpt>
      <trkpt lat="42.86514" lon="0.14442">
        <ele>2328</ele>
        <time>2016-07-03T06:29:21Z</time>
      </trkpt>
      <trkpt lat="42.86477" lon="0.1446">
        <ele>2345</ele>
        <time>2016-07-03T06:31:21Z</time>
      </trkpt>
      <trkpt lat="42.86436" lon="0.14456">
        <ele>2351</ele>
        <time>2016-07-03T06:33:21Z</time>
      </trkpt>
      <trkpt lat="42.8641" lon="0.14429">
        <ele>2363</ele>
        <time>2016-07-03T06:35:21Z</time>
      </trkpt>
      <trkpt lat="42.86377" lon="0.14429">
        <ele>2368</ele>
        <time>2016-07-03T06:37:21Z</time>
      </trkpt>
      <trkpt lat="42.86335" lon="0.14416">
        <ele>2374</ele>
        <time>2016-07-03T06:39:21Z</time>
      </trkpt>
      <trkpt lat="42.86317" lon="0.1445">
        <ele>2381</ele>
        <time>2016-07-03T06:41:21Z</time>
      </trkpt>
      <trkpt lat="42.86286" lon="0.14452">
        <ele>2383</ele>
        <time>2016-07-03T06:43:21Z</time>
      </trkpt>
      <trkpt lat="42.86212" lon="0.14397">
        <ele>2398</ele>
        <time>2016-07-03T06:45:21Z</time>
      </trkpt>
      <trkpt lat="42.86177" lon="0.14377">
        <ele>2403</ele>
        <time>2016-07-03T06:47:21Z</time>
      </trkpt>
      <trkpt lat="42.86166" lon="0.14327">
        <ele>2412</ele>
        <time>2016-07-03T06:49:21Z</time>
      </trkpt>
      <trkpt lat="42.86143" lon="0.14273">
        <ele>2419</ele>
        <time>2016-07-03T06:51:21Z</time>
      </trkpt>
      <trkpt lat="42.86118" lon="0.14223">
        <ele>2426</ele>
        <time>2016-07-03T06:53:21Z</time>
      </trkpt>
      <trkpt lat="42.86089" lon="0.14231">
        <ele>2429</ele>
        <time>2016-07-03T06:55:21Z</time>
      </trkpt>
      <trkpt lat="42.86069" lon="0.14204">
        <ele>2445</ele>
        <time>2016-07-03T06:57:21Z</time>
      </trkpt>
      <trkpt lat="42.86037" lon="0.1421">
        <ele>2450</ele>
        <time>2016-07-03T06:59:21Z</time>
      </trkpt>
      <trkpt lat="42.86011" lon="0.14185">
        <ele>2456</ele>
        <time>2016-07-03T07:01:21Z</time>
      </trkpt>
      <trkpt lat="42.85982" lon="0.14148">
        <ele>2470</ele>
        <time>2016-07-03T07:03:21Z</time>
      </trkpt>
      <trkpt lat="42.85956" lon="0.14101">
        <ele>2473</ele>
        <time>2016-07-03T07:05:21Z</time>
      </trkpt>
      <trkpt lat="42.85915" lon="0.14086">
        <ele>2477</ele>
        <time>2016-07-03T07:07:21Z</time>
      </trkpt>
      <trkpt lat="42.85882" lon="0.14054">
        <ele>2483</ele>
        <time>2016-07-03T07:09:21Z</time>
      </trkpt>
      <trkpt lat="42.85846" lon="0.14059">
        <ele>2488</ele>
        <time>2016-07-03T07:11:21Z</time>
      </trkpt>
      <trkpt lat="42.85809" lon="0.14061">
        <ele>2500</ele>
        <time>2016-07-03T07:13:21Z</time>
      </trkpt>
      <trkpt lat="42.85782" lon="0.14045">
        <ele>2502</ele>
        <time>2016-07-03T07:15:21Z</time>
      </trkpt>
      <trkpt lat="42.85751" lon="0.14034">
        <ele>2504</ele>
        <time>2016-07-03T07:17:21Z</time>
      </trkpt>
      <trkpt lat="42.85751" lon="0.13987">
        <ele>2509</ele>
        <time>2016-07-03T07:19:21Z</time>
      </trkpt>
      <trkpt lat="42.85767" lon="0.13942">
        <ele>2516</ele>
        <time>2016-07-03T07:21:21Z</time>
      </trkpt>
      <trkpt lat="42.85794" lon="0.13905">
        <ele>2526</ele>
        <time>2016-07-03T07:23:21Z</time>
      </trkpt>
      <trkpt lat="42.85832" lon="0.13874">
        <ele>2529</ele>
        <time>2016-07-03T07:25:21Z</time>
      </trkpt>
      <trkpt lat="42.85857" lon="0.13844">
        <ele>2526</ele>
        <time>2016-07-03T07:27:21Z</time>
      </trkpt>
      <trkpt lat="42.85873" lon="0.13794">
        <ele>2537</ele>
        <time>2016-07-03T07:29:21Z</time>
      </trkpt>
      <trkpt lat="42.85889" lon="0.13753">
        <ele>2542</ele>
        <time>2016-07-03T07:31:21Z</time>
      </trkpt>
      <trkpt lat="42.85913" lon="0.13732">
        <ele>2549</ele>
        <time>2016-07-03T07:33:21Z</time>
      </trkpt>
      <trkpt lat="42.85937" lon="0.13712">
        <ele>2546</ele>
        <time>2016-07-03T07:35:21Z</time>
      </trkpt>
      <trkpt lat="42.85968" lon="0.13702">
        <ele>2545</ele>
        <time>2016-07-03T07:37:21Z</time>
      </trkpt>
      <trkpt lat="42.85995" lon="0.13662">
        <ele>2551</ele>
        <time>2016-07-03T07:39:21Z</time>
      </trkpt>
      <trkpt lat="42.85989" lon="0.13643">
        <ele>2553</ele>
        <time>2016-07-03T07:41:21Z</time>
      </trkpt>
      <trkpt lat="42.86009" lon="0.13632">
        <ele>2549</ele>
        <time>2016-07-03T07:43:21Z</time>
      </trkpt>
      <trkpt lat="42.86038" lon="0.13627">
        <ele>2547</ele>
        <time>2016-07-03T07:45:21Z</time>
      </trkpt>
      <trkpt lat="42.8607" lon="0.13611">
        <ele>2543</ele>
        <time>2016-07-03T07:47:21Z</time>
      </trkpt>
      <trkpt lat="42.86107" lon="0.13583">
        <ele>2529</ele>
        <time>2016-07-03T07:49:21Z</time>
      </trkpt>
      <trkpt lat="42.86143" lon="0.13565">
        <ele>2525</ele>
        <time>2016-07-03T07:51:21Z</time>
      </trkpt>
      <trkpt lat="42.8618" lon="0.13536">
        <ele>2516</ele>
        <time>2016-07-03T07:53:21Z</time>
      </trkpt>
      <trkpt lat="42.86219" lon="0.13511">
        <ele>2512</ele>
        <time>2016-07-03T07:55:21Z</time>
      </trkpt>
      <trkpt lat="42.86263" lon="0.13503">
        <ele>2500</ele>
        <time>2016-07-03T07:57:21Z</time>
      </trkpt>
      <trkpt lat="42.86298" lon="0.1348">
        <ele>2485</ele>
        <time>2016-07-03T07:59:21Z</time>
      </trkpt>
      <trkpt lat="42.86331" lon="0.13464">
        <ele>2481</ele>
        <time>2016-07-03T08:01:21Z</time>
      </trkpt>
      <trkpt lat="42.86357" lon="0.1344">
        <ele>2466</ele>
        <time>2016-07-03T08:03:21Z</time>
      </trkpt>
      <trkpt lat="42.86395" lon="0.13404">
        <ele>2451</ele>
        <time>2016-07-03T08:05:21Z</time>
      </trkpt>
      <trkpt lat="42.86379" lon="0.13372">
        <ele>2448</ele>
        <time>2016-07-03T08:07:21Z</time>
      </trkpt>
      <trkpt lat="42.86422" lon="0.13348">
        <ele>2434</ele>
        <time>2016-07-03T08:09:21Z</time>
      </trkpt>
      <trkpt lat="42.86445" lon="0.13315">
        <ele>2424</ele>
        <time>2016-07-03T08:11:21Z</time>
      </trkpt>
      <trkpt lat="42.86423" lon="0.13303">
        <ele>2421</ele>
        <time>2016-07-03T08:13:21Z</time>
      </trkpt>
      <trkpt lat="42.86439" lon="0.13289">
        <ele>2420</ele>
        <time>2016-07-03T08:15:21Z</time>
      </trkpt>
      <trkpt lat="42.86416" lon="0.13283">
        <ele>2416</ele>
        <time>2016-07-03T08:17:21Z</time>
      </trkpt>
      <trkpt lat="42.86419" lon="0.13251">
        <ele>2403</ele>
        <time>2016-07-03T08:19:21Z</time>
      </trkpt>
      <trkpt lat="42.86411" lon="0.13207">
        <ele>2392</ele>
        <time>2016-07-03T08:21:21Z</time>
      </trkpt>
      <trkpt lat="42.86414" lon="0.13161">
        <ele>2377</ele>
        <time>2016-07-03T08:23:21Z</time>
      </trkpt>
      <trkpt lat="42.8642" lon="0.13116">
        <ele>2376</ele>
        <time>2016-07-03T08:25:21Z</time>
      </trkpt>
      <trkpt lat="42.86424" lon="0.13054">
        <ele>2360</ele>
        <time>2016-07-03T08:27:21Z</time>
      </trkpt>
      <trkpt lat="42.86426" lon="0.13004">
        <ele>2348</ele>
        <time>2016-07-03T08:29:21Z</time>
      </trkpt>
      <trkpt lat="42.86442" lon="0.12896">
        <ele>2334</ele>
        <time>2016-07-03T08:31:21Z</time>
      </trkpt>
      <trkpt lat="42.86479" lon="0.12848">
        <ele>2330</ele>
        <time>2016-07-03T08:33:21Z</time>
      </trkpt>
      <trkpt lat="42.86508" lon="0.12817">
        <ele>2321</ele>
        <time>2016-07-03T08:35:21Z</time>
      </trkpt>
      <trkpt lat="42.86532" lon="0.12781">
        <ele>2314</ele>
        <time>2016-07-03T08:37:21Z</time>
      </trkpt>
      <trkpt lat="42.86561" lon="0.12746">
        <ele>2298</ele>
        <time>2016-07-03T08:39:21Z</time>
      </trkpt>
      <trkpt lat="42.866" lon="0.1272">
        <ele>2287</ele>
        <time>2016-07-03T08:41:21Z</time>
      </trkpt>
      <trkpt lat="42.86637" lon="0.12686">
        <ele>2279</ele>
        <time>2016-07-03T08:43:21Z</time>
      </trkpt>
      <trkpt lat="42.86668" lon="0.12665">
        <ele>2260</ele>
        <time>2016-07-03T08:45:21Z</time>
      </trkpt>
      <trkpt lat="42.86693" lon="0.12617">
        <ele>2246</ele>
        <time>2016-07-03T08:47:21Z</time>
      </trkpt>
      <trkpt lat="42.86717" lon="0.1257">
        <ele>2227</ele>
        <time>2016-07-03T08:49:21Z</time>
      </trkpt>
      <trkpt lat="42.8674" lon="0.12525">
        <ele>2221</ele>
        <time>2016-07-03T08:51:21Z</time>
      </trkpt>
      <trkpt lat="42.86768" lon="0.12478">
        <ele>2210</ele>
        <time>2016-07-03T08:53:21Z</time>
      </trkpt>
      <trkpt lat="42.86782" lon="0.12426">
        <ele>2207</ele>
        <time>2016-07-03T08:55:21Z</time>
      </trkpt>
      <trkpt lat="42.86802" lon="0.12377">
        <ele>2200</ele>
        <time>2016-07-03T08:57:21Z</time>
      </trkpt>
      <trkpt lat="42.86831" lon="0.12349">
        <ele>2196</ele>
        <time>2016-07-03T08:59:21Z</time>
      </trkpt>
      <trkpt lat="42.86862" lon="0.12324">
        <ele>2194</ele>
        <time>2016-07-03T09:01:21Z</time>
      </trkpt>
      <trkpt lat="42.86894" lon="0.1229">
        <ele>2195</ele>
        <time>2016-07-03T09:03:21Z</time>
      </trkpt>
      <trkpt lat="42.86906" lon="0.12241">
        <ele>2197</ele>
        <time>2016-07-03T09:05:21Z</time>
      </trkpt>
      <trkpt lat="42.86934" lon="0.12199">
        <ele>2198</ele>
        <time>2016-07-03T09:07:21Z</time>
      </trkpt>
      <trkpt lat="42.86944" lon="0.12154">
        <ele>2195</ele>
        <time>2016-07-03T09:09:21Z</time>
      </trkpt>
      <trkpt lat="42.86953" lon="0.12102">
        <ele>2195</ele>
        <time>2016-07-03T09:11:21Z</time>
      </trkpt>
      <trkpt lat="42.86964" lon="0.12061">
        <ele>2192</ele>
        <time>2016-07-03T09:13:21Z</time>
      </trkpt>
      <trkpt lat="42.86953" lon="0.12036">
        <ele>2191</ele>
        <time>2016-07-03T09:15:21Z</time>
      </trkpt>
      <trkpt lat="42.86963" lon="0.11986">
        <ele>2182</ele>
        <time>2016-07-03T09:17:21Z</time>
      </trkpt>
      <trkpt lat="42.86957" lon="0.11932">
        <ele>2177</ele>
        <time>2016-07-03T09:19:21Z</time>
      </trkpt>
      <trkpt lat="42.86971" lon="0.11884">
        <ele>2162</ele>
        <time>2016-07-03T09:21:21Z</time>
      </trkpt>
      <trkpt lat="42.86988" lon="0.11838">
        <ele>2154</ele>
        <time>2016-07-03T09:23:21Z</time>
      </trkpt>
      <trkpt lat="42.8702" lon="0.1184">
        <ele>2148</ele>
        <time>2016-07-03T09:25:21Z</time>
      </trkpt>
      <trkpt lat="42.87047" lon="0.11824">
        <ele>2136</ele>
        <time>2016-07-03T09:27:21Z</time>
      </trkpt>
      <trkpt lat="42.87078" lon="0.11806">
        <ele>2134</ele>
        <time>2016-07-03T09:29:21Z</time>
      </trkpt>
      <trkpt lat="42.87105" lon="0.11813">
        <ele>2128</ele>
        <time>2016-07-03T09:31:21Z</time>
      </trkpt>
      <trkpt lat="42.87113" lon="0.11856">
        <ele>2131</ele>
        <time>2016-07-03T09:33:21Z</time>
      </trkpt>
      <trkpt lat="42.87136" lon="0.11873">
        <ele>2129</ele>
        <time>2016-07-03T09:35:21Z</time>
      </trkpt>
      <trkpt lat="42.87157" lon="0.11913">
        <ele>2126</ele>
        <time>2016-07-03T09:37:21Z</time>
      </trkpt>
      <trkpt lat="42.87187" lon="0.1192">
        <ele>2121</ele>
        <time>2016-07-03T09:39:21Z</time>
      </trkpt>
      <trkpt lat="42.872" lon="0.11945">
        <ele>2120</ele>
        <time>2016-07-03T09:41:21Z</time>
      </trkpt>
      <trkpt lat="42.87231" lon="0.11959">
        <ele>2118</ele>
        <time>2016-07-03T09:43:21Z</time>
      </trkpt>
      <trkpt lat="42.87266" lon="0.11975">
        <ele>2111</ele>
        <time>2016-07-03T09:45:21Z</time>
      </trkpt>
      <trkpt lat="42.87294" lon="0.12007">
        <ele>2117</ele>
        <time>2016-07-03T09:47:21Z</time>
      </trkpt>
      <trkpt lat="42.87323" lon="0.12044">
        <ele>2120</ele>
        <time>2016-07-03T09:49:21Z</time>
      </trkpt>
      <trkpt lat="42.87354" lon="0.12029">
        <ele>2118</ele>
        <time>2016-07-03T09:51:21Z</time>
      </trkpt>
      <trkpt lat="42.87388" lon="0.12004">
        <ele>2118</ele>
        <time>2016-07-03T09:53:21Z</time>
      </trkpt>
      <trkpt lat="42.87428" lon="0.11972">
        <ele>2103</ele>
        <time>2016-07-03T09:55:21Z</time>
      </trkpt>
      <trkpt lat="42.87458" lon="0.11986">
        <ele>2099</ele>
        <time>2016-07-03T09:57:21Z</time>
      </trkpt>
      <trkpt lat="42.87493" lon="0.11996">
        <ele>2097</ele>
        <time>2016-07-03T09:59:21Z</time>
      </trkpt>
      <trkpt lat="42.87525" lon="0.12005">
        <ele>2104</ele>
        <time>2016-07-03T10:01:21Z</time>
      </trkpt>
      <trkpt lat="42.87569" lon="0.11995">
        <ele>2090</ele>
        <time>2016-07-03T10:03:21Z</time>
      </trkpt>
      <trkpt lat="42.87597" lon="0.11947">
        <ele>2087</ele>
        <time>2016-07-03T10:05:21Z</time>
      </trkpt>
      <trkpt lat="42.87615" lon="0.11918">
        <ele>2086</ele>
        <time>2016-07-03T10:07:21Z</time>
      </trkpt>
      <trkpt lat="42.87633" lon="0.11885">
        <ele>2072</ele>
        <time>2016-07-03T10:09:21Z</time>
      </trkpt>
      <trkpt lat="42.87658" lon="0.11843">
        <ele>2070</ele>
        <time>2016-07-03T10:11:21Z</time>
      </trkpt>
      <trkpt lat="42.87675" lon="0.11788">
        <ele>2069</ele>
        <time>2016-07-03T10:13:21Z</time>
      </trkpt>
      <trkpt lat="42.87689" lon="0.1173">
        <ele>2055</ele>
        <time>2016-07-03T10:15:21Z</time>
      </trkpt>
      <trkpt lat="42.87711" lon="0.11689">
        <ele>2052</ele>
        <time>2016-07-03T10:17:21Z</time>
      </trkpt>
      <trkpt lat="42.87736" lon="0.11644">
        <ele>2042</ele>
        <time>2016-07-03T10:19:21Z</time>
      </trkpt>
      <trkpt lat="42.87766" lon="0.11606">
        <ele>2035</ele>
        <time>2016-07-03T10:21:21Z</time>
      </trkpt>
      <trkpt lat="42.87752" lon="0.11571">
        <ele>2033</ele>
        <time>2016-07-03T10:23:21Z</time>
      </trkpt>
      <trkpt lat="42.8774" lon="0.11517">
        <ele>2035</ele>
        <time>2016-07-03T10:25:21Z</time>
      </trkpt>
      <trkpt lat="42.87736" lon="0.11457">
        <ele>2035</ele>
        <time>2016-07-03T10:27:21Z</time>
      </trkpt>
      <trkpt lat="42.87756" lon="0.11418">
        <ele>2036</ele>
        <time>2016-07-03T10:29:21Z</time>
      </trkpt>
      <trkpt lat="42.87746" lon="0.11369">
        <ele>2040</ele>
        <time>2016-07-03T10:31:21Z</time>
      </trkpt>
      <trkpt lat="42.87716" lon="0.11313">
        <ele>2041</ele>
        <time>2016-07-03T10:33:21Z</time>
      </trkpt>
      <trkpt lat="42.87696" lon="0.11257">
        <ele>2040</ele>
        <time>2016-07-03T10:35:21Z</time>
      </trkpt>
      <trkpt lat="42.87723" lon="0.11214">
        <ele>2038</ele>
        <time>2016-07-03T10:37:21Z</time>
      </trkpt>
      <trkpt lat="42.87743" lon="0.11168">
        <ele>2027</ele>
        <time>2016-07-03T10:39:21Z</time>
      </trkpt>
      <trkpt lat="42.87751" lon="0.1113">
        <ele>2009</ele>
        <time>2016-07-03T10:41:21Z</time>
      </trkpt>
      <trkpt lat="42.87767" lon="0.11097">
        <ele>2011</ele>
        <time>2016-07-03T10:43:21Z</time>
      </trkpt>
      <trkpt lat="42.87804" lon="0.11076">
        <ele>2002</ele>
        <time>2016-07-03T10:45:21Z</time>
      </trkpt>
      <trkpt lat="42.87804" lon="0.11097">
        <ele>1995</ele>
        <time>2016-07-03T10:47:21Z</time>
      </trkpt>
      <trkpt lat="42.87829" lon="0.11077">
        <ele>1986</ele>
        <time>2016-07-03T10:49:21Z</time>
      </trkpt>
      <trkpt lat="42.87852" lon="0.11049">
        <ele>1967</ele>
        <time>2016-07-03T10:51:21Z</time>
      </trkpt>
      <trkpt lat="42.87876" lon="0.11006">
        <ele>1964</ele>
        <time>2016-07-03T10:53:21Z</time>
      </trkpt>
      <trkpt lat="42.87895" lon="0.10955">
        <ele>1978</ele>
        <time>2016-07-03T10:55:21Z</time>
      </trkpt>
      <trkpt lat="42.8794" lon="0.10958">
        <ele>1950</ele>
        <time>2016-07-03T10:57:21Z</time>
      </trkpt>
      <trkpt lat="42.8792" lon="0.10989">
        <ele>1945</ele>
        <time>2016-07-03T10:59:21Z</time>
      </trkpt>
      <trkpt lat="42.87921" lon="0.11034">
        <ele>1927</ele>
        <time>2016-07-03T11:01:21Z</time>
      </trkpt>
      <trkpt lat="42.87909" lon="0.11097">
        <ele>1938</ele>
        <time>2016-07-03T11:03:21Z</time>
      </trkpt>
      <trkpt lat="42.87905" lon="0.11169">
        <ele>1932</ele>
        <time>2016-07-03T11:05:21Z</time>
      </trkpt>
      <trkpt lat="42.87919" lon="0.11205">
        <ele>1902</ele>
        <time>2016-07-03T11:07:21Z</time>
      </trkpt>
      <trkpt lat="42.87951" lon="0.11167">
        <ele>1899</ele>
        <time>2016-07-03T11:09:21Z</time>
      </trkpt>
      <trkpt lat="42.87979" lon="0.11151">
        <ele>1896</ele>
        <time>2016-07-03T11:11:21Z</time>
      </trkpt>
      <trkpt lat="42.87997" lon="0.11126">
        <ele>1897</ele>
        <time>2016-07-03T11:13:21Z</time>
      </trkpt>
      <trkpt lat="42.87995" lon="0.11094">
        <ele>1895</ele>
        <time>2016-07-03T11:15:21Z</time>
      </trkpt>
      <trkpt lat="42.88067" lon="0.11061">
        <ele>1874</ele>
        <time>2016-07-03T11:17:21Z</time>
      </trkpt>
      <trkpt lat="42.8811" lon="0.11037">
        <ele>1850</ele>
        <time>2016-07-03T11:19:21Z</time>
      </trkpt>
      <trkpt lat="42.88156" lon="0.11016">
        <ele>1841</ele>
        <time>2016-07-03T11:21:21Z</time>
      </trkpt>
      <trkpt lat="42.88207" lon="0.10979">
        <ele>1829</ele>
        <time>2016-07-03T11:23:21Z</time>
      </trkpt>
      <trkpt lat="42.88182" lon="0.11064">
        <ele>1807</ele>
        <time>2016-07-03T11:25:21Z</time>
      </trkpt>
      <trkpt lat="42.88194" lon="0.11131">
        <ele>1787</ele>
        <time>2016-07-03T11:27:21Z</time>
      </trkpt>
      <trkpt lat="42.88186" lon="0.11206">
        <ele>1784</ele>
        <time>2016-07-03T11:29:21Z</time>
      </trkpt>
      <trkpt lat="42.88252" lon="0.11266">
        <ele>1769</ele>
        <time>2016-07-03T11:31:21Z</time>
      </trkpt>
      <trkpt lat="42.88285" lon="0.11243">
        <ele>1763</ele>
        <time>2016-07-03T11:33:21Z</time>
      </trkpt>
      <trkpt lat="42.88294" lon="0.11217">
        <ele>1761</ele>
        <time>2016-07-03T11:35:21Z</time>
      </trkpt>
      <trkpt lat="42.8831" lon="0.11195">
        <ele>1760</ele>
        <time>2016-07-03T11:37:21Z</time>
      </trkpt>
      <trkpt lat="42.88316" lon="0.11206">
        <ele>1760</ele>
        <time>2016-07-03T11:39:21Z</time>
      </trkpt>
      <trkpt lat="42.88339" lon="0.11154">
        <ele>1753</ele>
        <time>2016-07-03T11:41:21Z</time>
      </trkpt>
      <trkpt lat="42.88391" lon="0.11161">
        <ele>1752</ele>
        <time>2016-07-03T11:43:21Z</time>
      </trkpt>
      <trkpt lat="42.88443" lon="0.11061">
        <ele>1738</ele>
        <time>2016-07-03T11:45:21Z</time>
      </trkpt>
      <trkpt lat="42.885" lon="0.11001">
        <ele>1735</ele>
        <time>2016-07-03T11:47:21Z</time>
      </trkpt>
      <trkpt lat="42.88542" lon="0.10959">
        <ele>1728</ele>
        <time>2016-07-03T11:49:21Z</time>
      </trkpt>
      <trkpt lat="42.88612" lon="0.10886">
        <ele>1708</ele>
        <time>2016-07-03T11:51:21Z</time>
      </trkpt>
      <trkpt lat="42.8865" lon="0.10888">
        <ele>1709</ele>
        <time>2016-07-03T11:53:21Z</time>
      </trkpt>
      <trkpt lat="42.88625" lon="0.10843">
        <ele>1705</ele>
        <time>2016-07-03T11:55:21Z</time>
      </trkpt>
      <trkpt lat="42.88624" lon="0.10813">
        <ele>1699</ele>
        <time>2016-07-03T11:57:21Z</time>
      </trkpt>
      <trkpt lat="42.88696" lon="0.10828">
        <ele>1691</ele>
        <time>2016-07-03T11:59:21Z</time>
      </trkpt>
      <trkpt lat="42.88762" lon="0.10832">
        <ele>1690</ele>
        <time>2016-07-03T12:01:21Z</time>
      </trkpt>
      <trkpt lat="42.88831" lon="0.10808">
        <ele>1682</ele>
        <time>2016-07-03T12:03:21Z</time>
      </trkpt>
      <trkpt lat="42.88895" lon="0.10775">
        <ele>1673</ele>
        <time>2016-07-03T12:05:21Z</time>
      </trkpt>
      <trkpt lat="42.88955" lon="0.10739">
        <ele>1658</ele>
        <time>2016-07-03T12:07:21Z</time>
      </trkpt>
      <trkpt lat="42.89045" lon="0.10751">
        <ele>1672</ele>
        <time>2016-07-03T12:09:21Z</time>
      </trkpt>
      <trkpt lat="42.8908" lon="0.10713">
        <ele>1648</ele>
        <time>2016-07-03T12:11:21Z</time>
      </trkpt>
      <trkpt lat="42.89168" lon="0.107">
        <ele>1627</ele>
        <time>2016-07-03T12:13:21Z</time>
      </trkpt>
      <trkpt lat="42.8936" lon="0.10656">
        <ele>1581</ele>
        <time>2016-07-03T12:15:21Z</time>
      </trkpt>
      <trkpt lat="42.8947" lon="0.10676">
        <ele>1572</ele>
        <time>2016-07-03T12:17:21Z</time>
      </trkpt>
      <trkpt lat="42.89517" lon="0.10659">
        <ele>1552</ele>
        <time>2016-07-03T12:19:21Z</time>
      </trkpt>
      <trkpt lat="42.89568" lon="0.10633">
        <ele>1547</ele>
        <time>2016-07-03T12:21:21Z</time>
      </trkpt>
      <trkpt lat="42.89645" lon="0.10636">
        <ele>1537</ele>
        <time>2016-07-03T12:23:21Z</time>
      </trkpt>
      <trkpt lat="42.89678" lon="0.1061">
        <ele>1529</ele>
        <time>2016-07-03T12:25:21Z</time>
      </trkpt>
      <trkpt lat="42.89763" lon="0.10601">
        <ele>1522</ele>
        <time>2016-07-03T12:27:21Z</time>
      </trkpt>
      <trkpt lat="42.89814" lon="0.10571">
        <ele>1516</ele>
        <time>2016-07-03T12:29:21Z</time>
      </trkpt>
      <trkpt lat="42.89878" lon="0.10526">
        <ele>1507</ele>
        <time>2016-07-03T12:31:21Z</time>
      </trkpt>
      <trkpt lat="42.89949" lon="0.10474">
        <ele>1500</ele>
        <time>2016-07-03T12:33:21Z</time>
      </trkpt>
      <trkpt lat="42.9004" lon="0.10431">
        <ele>1493</ele>
        <time>2016-07-03T12:35:21Z</time>
      </trkpt>
      <trkpt lat="42.90114" lon="0.10398">
        <ele>1485</ele>
        <time>2016-07-03T12:37:21Z</time>
      </trkpt>
      <trkpt lat="42.90182" lon="0.10343">
        <ele>1476</ele>
        <time>2016-07-03T12:39:21Z</time>
      </trkpt>
      <trkpt lat="42.90258" lon="0.10322">
        <ele>1467</ele>
        <time>2016-07-03T12:41:21Z</time>
      </trkpt>
      <trkpt lat="42.90325" lon="0.10241">
        <ele>1460</ele>
        <time>2016-07-03T12:43:21Z</time>
      </trkpt>
      <trkpt lat="42.90415" lon="0.10366">
        <ele>1470</ele>
        <time>2016-07-03T12:45:21Z</time>
      </trkpt>
      <trkpt lat="42.90561" lon="0.10147">
        <ele>1489</ele>
        <time>2016-07-03T12:47:21Z</time>
      </trkpt>
      <trkpt lat="42.90527" lon="0.10479">
        <ele>1504</ele>
        <time>2016-07-03T12:49:21Z</time>
      </trkpt>
      <trkpt lat="42.90638" lon="0.10181">
        <ele>1517</ele>
        <time>2016-07-03T12:51:21Z</time>
      </trkpt>
      <trkpt lat="42.9066" lon="0.10346">
        <ele>1538</ele>
        <time>2016-07-03T12:53:21Z</time>
      </trkpt>
      <trkpt lat="42.9065" lon="0.10646">
        <ele>1559</ele>
        <time>2016-07-03T12:55:21Z</time>
      </trkpt>
      <trkpt lat="42.90771" lon="0.11149">
        <ele>1623</ele>
        <time>2016-07-03T12:57:21Z</time>
      </trkpt>
      <trkpt lat="42.90888" lon="0.11376">
        <ele>1658</ele>
        <time>2016-07-03T12:59:21Z</time>
      </trkpt>
      <trkpt lat="42.90932" lon="0.11457">
        <ele>1676</ele>
        <time>2016-07-03T13:01:21Z</time>
      </trkpt>
      <trkpt lat="42.90982" lon="0.11461">
        <ele>1686</ele>
        <time>2016-07-03T13:03:21Z</time>
      </trkpt>
      <trkpt lat="42.90957" lon="0.11545">
        <ele>1680</ele>
        <time>2016-07-03T13:05:21Z</time>
      </trkpt>
      <trkpt lat="42.91014" lon="0.11692">
        <ele>1712</ele>
        <time>2016-07-03T13:07:21Z</time>
      </trkpt>
      <trkpt lat="42.91069" lon="0.11849">
        <ele>1732</ele>
        <time>2016-07-03T13:09:21Z</time>
      </trkpt>
      <trkpt lat="42.90954" lon="0.11863">
        <ele>1727</ele>
        <time>2016-07-03T13:11:21Z</time>
      </trkpt>
      <trkpt lat="42.90922" lon="0.11907">
        <ele>1729</ele>
        <time>2016-07-03T13:13:21Z</time>
      </trkpt>
      <trkpt lat="42.9092" lon="0.12032">
        <ele>1754</ele>
        <time>2016-07-03T13:15:21Z</time>
      </trkpt>
      <trkpt lat="42.90915" lon="0.12246">
        <ele>1766</ele>
        <time>2016-07-03T13:17:21Z</time>
      </trkpt>
      <trkpt lat="42.90932" lon="0.12646">
        <ele>1822</ele>
        <time>2016-07-03T13:19:21Z</time>
      </trkpt>
      <trkpt lat="42.90947" lon="0.1282">
        <ele>1839</ele>
        <time>2016-07-03T13:21:21Z</time>
      </trkpt>
      <trkpt lat="42.90974" lon="0.13029">
        <ele>1855</ele>
        <time>2016-07-03T13:23:21Z</time>
      </trkpt>
      <trkpt lat="42.91007" lon="0.13193">
        <ele>1875</ele>
        <time>2016-07-03T13:25:21Z</time>
      </trkpt>
      <trkpt lat="42.9108" lon="0.13279">
        <ele>1882</ele>
        <time>2016-07-03T13:27:21Z</time>
      </trkpt>
      <trkpt lat="42.91141" lon="0.13393">
        <ele>1888</ele>
        <time>2016-07-03T13:29:21Z</time>
      </trkpt>
      <trkpt lat="42.9122" lon="0.13411">
        <ele>1900</ele>
        <time>2016-07-03T13:31:21Z</time>
      </trkpt>
      <trkpt lat="42.91265" lon="0.13394">
        <ele>1909</ele>
        <time>2016-07-03T13:33:21Z</time>
      </trkpt>
      <trkpt lat="42.91291" lon="0.13277">
        <ele>1923</ele>
        <time>2016-07-03T13:35:21Z</time>
      </trkpt>
      <trkpt lat="42.91315" lon="0.13117">
        <ele>1951</ele>
        <time>2016-07-03T13:37:21Z</time>
      </trkpt>
      <trkpt lat="42.91335" lon="0.12976">
        <ele>1986</ele>
        <time>2016-07-03T13:39:21Z</time>
      </trkpt>
      <trkpt lat="42.91339" lon="0.12832">
        <ele>1997</ele>
        <time>2016-07-03T13:41:21Z</time>
      </trkpt>
      <trkpt lat="42.91354" lon="0.12693">
        <ele>2010</ele>
        <time>2016-07-03T13:43:21Z</time>
      </trkpt>
      <trkpt lat="42.91372" lon="0.12794">
        <ele>2017</ele>
        <time>2016-07-03T13:45:21Z</time>
      </trkpt>
      <trkpt lat="42.91418" lon="0.12904">
        <ele>2035</ele>
        <time>2016-07-03T13:47:21Z</time>
      </trkpt>
      <trkpt lat="42.91563" lon="0.13026">
        <ele>2055</ele>
        <time>2016-07-03T13:49:21Z</time>
      </trkpt>
      <trkpt lat="42.91661" lon="0.13092">
        <ele>2092</ele>
        <time>2016-07-03T13:51:21Z</time>
      </trkpt>
      <trkpt lat="42.91747" lon="0.13176">
        <ele>2108</ele>
        <time>2016-07-03T13:53:21Z</time>
      </trkpt>
      <trkpt lat="42.91734" lon="0.13235">
        <ele>2109</ele>
        <time>2016-07-03T13:55:21Z</time>
      </trkpt>
      <trkpt lat="42.91812" lon="0.13123">
        <ele>2142</ele>
        <time>2016-07-03T13:57:21Z</time>
      </trkpt>
      <trkpt lat="42.91816" lon="0.13185">
        <ele>2138</ele>
        <time>2016-07-03T13:59:21Z</time>
      </trkpt>
      <trkpt lat="42.9191" lon="0.13188">
        <ele>2155</ele>
        <time>2016-07-03T14:01:21Z</time>
      </trkpt>
      <trkpt lat="42.91954" lon="0.13233">
        <ele>2162</ele>
        <time>2016-07-03T14:03:21Z</time>
      </trkpt>
      <trkpt lat="42.91972" lon="0.13208">
        <ele>2162</ele>
        <time>2016-07-03T14:05:21Z</time>
      </trkpt>
      <trkpt lat="42.92046" lon="0.13217">
        <ele>2175</ele>
        <time>2016-07-03T14:07:21Z</time>
      </trkpt>
      <trkpt lat="42.92137" lon="0.13263">
        <ele>2186</ele>
        <time>2016-07-03T14:09:21Z</time>
      </trkpt>
      <trkpt lat="42.92255" lon="0.13275">
        <ele>2210</ele>
        <time>2016-07-03T14:11:21Z</time>
      </trkpt>
      <trkpt lat="42.92369" lon="0.13321">
        <ele>2216</ele>
        <time>2016-07-03T14:13:21Z</time>
      </trkpt>
      <trkpt lat="42.92495" lon="0.1343">
        <ele>2235</ele>
        <time>2016-07-03T14:15:21Z</time>
      </trkpt>
      <trkpt lat="42.92553" lon="0.13469">
        <ele>2246</ele>
        <time>2016-07-03T14:17:21Z</time>
      </trkpt>
      <trkpt lat="42.92553" lon="0.13495">
        <ele>2247</ele>
        <time>2016-07-03T14:19:21Z</time>
      </trkpt>
      <trkpt lat="42.92562" lon="0.1344">
        <ele>2244</ele>
        <time>2016-07-03T14:21:21Z</time>
      </trkpt>
      <trkpt lat="42.92693" lon="0.13636">
        <ele>2285</ele>
        <time>2016-07-03T14:23:21Z</time>
      </trkpt>
      <trkpt lat="42.92695" lon="0.13674">
        <ele>2304</ele>
        <time>2016-07-03T14:25:21Z</time>
      </trkpt>
      <trkpt lat="42.92626" lon="0.13725">
        <ele>2319</ele>
        <time>2016-07-03T14:27:21Z</time>
      </trkpt>
      <trkpt lat="42.92745" lon="0.13787">
        <ele>2343</ele>
        <time>2016-07-03T14:29:21Z</time>
      </trkpt>
      <trkpt lat="42.92881" lon="0.13861">
        <ele>2377</ele>
        <time>2016-07-03T14:31:21Z</time>
      </trkpt>
      <trkpt lat="42.93004" lon="0.13835">
        <ele>2365</ele>
        <time>2016-07-03T14:33:21Z</time>
      </trkpt>
      <trkpt lat="42.93036" lon="0.13836">
        <ele>2371</ele>
        <time>2016-07-03T14:35:21Z</time>
      </trkpt>
      <trkpt lat="42.9304" lon="0.13859">
        <ele>2372</ele>
        <time>2016-07-03T14:37:21Z</time>
      </trkpt>
      <trkpt lat="42.93054" lon="0.13953">
        <ele>2372</ele>
        <time>2016-07-03T18:37:21Z</time>
      </trkpt>
      <trkpt lat="42.93024" lon="0.14039">
        <ele>2360</ele>
        <time>2016-07-03T18:39:21Z</time>
      </trkpt>
      <trkpt lat="42.9298" lon="0.14157">
        <ele>2342</ele>
        <time>2016-07-03T18:41:21Z</time>
      </trkpt>
      <trkpt lat="42.9295" lon="0.14253">
        <ele>2305</ele>
        <time>2016-07-03T18:43:21Z</time>
      </trkpt>
      <trkpt lat="42.92924" lon="0.143">
        <ele>2296</ele>
        <time>2016-07-03T18:45:21Z</time>
      </trkpt>
      <trkpt lat="42.92886" lon="0.14298">
        <ele>2288</ele>
        <time>2016-07-03T18:47:21Z</time>
      </trkpt>
      <trkpt lat="42.92871" lon="0.1432">
        <ele>2284</ele>
        <time>2016-07-03T18:49:21Z</time>
      </trkpt>
      <trkpt lat="42.92826" lon="0.14331">
        <ele>2278</ele>
        <time>2016-07-03T18:51:21Z</time>
      </trkpt>
      <trkpt lat="42.92802" lon="0.14387">
        <ele>2265</ele>
        <time>2016-07-03T18:53:21Z</time>
      </trkpt>
      <trkpt lat="42.92777" lon="0.14479">
        <ele>2251</ele>
        <time>2016-07-03T18:55:21Z</time>
      </trkpt>
      <trkpt lat="42.9279" lon="0.14535">
        <ele>2243</ele>
        <time>2016-07-03T18:57:21Z</time>
      </trkpt>
      <trkpt lat="42.92811" lon="0.14585">
        <ele>2231</ele>
        <time>2016-07-03T18:59:21Z</time>
      </trkpt>
      <trkpt lat="42.92812" lon="0.14652">
        <ele>2231</ele>
        <time>2016-07-03T19:01:21Z</time>
      </trkpt>
      <trkpt lat="42.92909" lon="0.14784">
        <ele>2207</ele>
        <time>2016-07-03T19:03:21Z</time>
      </trkpt>
      <trkpt lat="42.92966" lon="0.14907">
        <ele>2187</ele>
        <time>2016-07-03T19:05:21Z</time>
      </trkpt>
      <trkpt lat="42.93003" lon="0.14963">
        <ele>2176</ele>
        <time>2016-07-03T19:07:21Z</time>
      </trkpt>
      <trkpt lat="42.93036" lon="0.15036">
        <ele>2157</ele>
        <time>2016-07-03T19:09:21Z</time>
      </trkpt>
      <trkpt lat="42.93021" lon="0.15198">
        <ele>2121</ele>
        <time>2016-07-03T19:11:21Z</time>
      </trkpt>
      <trkpt lat="42.92998" lon="0.15266">
        <ele>2111</ele>
        <time>2016-07-03T19:13:21Z</time>
      </trkpt>
      <trkpt lat="42.92988" lon="0.15307">
        <ele>2109</ele>
        <time>2016-07-03T19:15:21Z</time>
      </trkpt>
      <trkpt lat="42.92984" lon="0.1538">
        <ele>2100</ele>
        <time>2016-07-03T19:17:21Z</time>
      </trkpt>
      <trkpt lat="42.92991" lon="0.15415">
        <ele>2087</ele>
        <time>2016-07-03T19:19:21Z</time>
      </trkpt>
      <trkpt lat="42.93043" lon="0.15308">
        <ele>2091</ele>
        <time>2016-07-03T19:21:21Z</time>
      </trkpt>
      <trkpt lat="42.93088" lon="0.15346">
        <ele>2079</ele>
        <time>2016-07-03T19:23:21Z</time>
      </trkpt>
      <trkpt lat="42.9311" lon="0.15375">
        <ele>2081</ele>
        <time>2016-07-03T19:25:21Z</time>
      </trkpt>
      <trkpt lat="42.93107" lon="0.15436">
        <ele>2058</ele>
        <time>2016-07-03T19:27:21Z</time>
      </trkpt>
      <trkpt lat="42.93127" lon="0.15518">
        <ele>2035</ele>
        <time>2016-07-03T19:29:21Z</time>
      </trkpt>
      <trkpt lat="42.93133" lon="0.15628">
        <ele>2005</ele>
        <time>2016-07-03T19:31:21Z</time>
      </trkpt>
      <trkpt lat="42.93159" lon="0.15688">
        <ele>1988</ele>
        <time>2016-07-03T19:33:21Z</time>
      </trkpt>
      <trkpt lat="42.93162" lon="0.15731">
        <ele>1982</ele>
        <time>2016-07-03T19:35:21Z</time>
      </trkpt>
      <trkpt lat="42.93174" lon="0.15764">
        <ele>1966</ele>
        <time>2016-07-03T19:37:21Z</time>
      </trkpt>
      <trkpt lat="42.93187" lon="0.15834">
        <ele>1945</ele>
        <time>2016-07-03T19:39:21Z</time>
      </trkpt>
      <trkpt lat="42.93164" lon="0.15902">
        <ele>1951</ele>
        <time>2016-07-03T19:41:21Z</time>
      </trkpt>
      <trkpt lat="42.93202" lon="0.15888">
        <ele>1935</ele>
        <time>2016-07-03T19:43:21Z</time>
      </trkpt>
      <trkpt lat="42.93225" lon="0.1593">
        <ele>1916</ele>
        <time>2016-07-03T19:45:21Z</time>
      </trkpt>
      <trkpt lat="42.93182" lon="0.15935">
        <ele>1924</ele>
        <time>2016-07-03T19:47:21Z</time>
      </trkpt>
      <trkpt lat="42.93219" lon="0.15958">
        <ele>1914</ele>
        <time>2016-07-03T19:49:21Z</time>
      </trkpt>
      <trkpt lat="42.93219" lon="0.15979">
        <ele>1911</ele>
        <time>2016-07-03T19:51:21Z</time>
      </trkpt>
      <trkpt lat="42.93202" lon="0.16001">
        <ele>1900</ele>
        <time>2016-07-03T19:53:21Z</time>
      </trkpt>
      <trkpt lat="42.9322" lon="0.16013">
        <ele>1898</ele>
        <time>2016-07-03T19:55:21Z</time>
      </trkpt>
      <trkpt lat="42.93251" lon="0.16021">
        <ele>1884</ele>
        <time>2016-07-03T19:57:21Z</time>
      </trkpt>
      <trkpt lat="42.9323" lon="0.16092">
        <ele>1883</ele>
        <time>2016-07-03T19:59:21Z</time>
      </trkpt>
      <trkpt lat="42.932" lon="0.16121">
        <ele>1883</ele>
        <time>2016-07-03T20:01:21Z</time>
      </trkpt>
      <trkpt lat="42.93187" lon="0.16158">
        <ele>1880</ele>
        <time>2016-07-03T20:03:21Z</time>
      </trkpt>
      <trkpt lat="42.93128" lon="0.16234">
        <ele>1863</ele>
        <time>2016-07-03T20:05:21Z</time>
      </trkpt>
      <trkpt lat="42.93081" lon="0.16272">
        <ele>1839</ele>
        <time>2016-07-03T20:07:21Z</time>
      </trkpt>
      <trkpt lat="42.9301" lon="0.16293">
        <ele>1832</ele>
        <time>2016-07-03T20:09:21Z</time>
      </trkpt>
      <trkpt lat="42.92936" lon="0.16306">
        <ele>1849</ele>
        <time>2016-07-03T20:11:21Z</time>
      </trkpt>
      <trkpt lat="42.92894" lon="0.16325">
        <ele>1867</ele>
        <time>2016-07-03T20:13:21Z</time>
      </trkpt>
      <trkpt lat="42.92876" lon="0.16341">
        <ele>1849</ele>
        <time>2016-07-03T20:15:21Z</time>
      </trkpt>
      <trkpt lat="42.92852" lon="0.16385">
        <ele>1846</ele>
        <time>2016-07-03T20:17:21Z</time>
      </trkpt>
      <trkpt lat="42.92833" lon="0.16435">
        <ele>1854</ele>
        <time>2016-07-03T20:19:21Z</time>
      </trkpt>
      <trkpt lat="42.92845" lon="0.16473">
        <ele>1811</ele>
        <time>2016-07-03T20:21:21Z</time>
      </trkpt>
      <trkpt lat="42.92824" lon="0.16546">
        <ele>1837</ele>
        <time>2016-07-03T20:23:21Z</time>
      </trkpt>
      <trkpt lat="42.92847" lon="0.16663">
        <ele>1825</ele>
        <time>2016-07-03T20:25:21Z</time>
      </trkpt>
      <trkpt lat="42.92879" lon="0.16818">
        <ele>1775</ele>
        <time>2016-07-03T20:27:21Z</time>
      </trkpt>
      <trkpt lat="42.92909" lon="0.17083">
        <ele>1702</ele>
        <time>2016-07-03T20:29:21Z</time>
      </trkpt>
      <trkpt lat="42.92911" lon="0.17196">
        <ele>1715</ele>
        <time>2016-07-03T20:31:21Z</time>
      </trkpt>
      <trkpt lat="42.92953" lon="0.17234">
        <ele>1676</ele>
        <time>2016-07-03T20:33:21Z</time>
      </trkpt>
      <trkpt lat="42.92979" lon="0.1734">
        <ele>1668</ele>
        <time>2016-07-03T20:35:21Z</time>
      </trkpt>
      <trkpt lat="42.93015" lon="0.1743">
        <ele>1645</ele>
        <time>2016-07-03T20:37:21Z</time>
      </trkpt>
      <trkpt lat="42.9302" lon="0.17558">
        <ele>1622</ele>
        <time>2016-07-03T20:39:21Z</time>
      </trkpt>
      <trkpt lat="42.92954" lon="0.17619">
        <ele>1638</ele>
        <time>2016-07-03T20:41:21Z</time>
      </trkpt>
      <trkpt lat="42.92935" lon="0.17711">
        <ele>1618</ele>
        <time>2016-07-03T20:43:21Z</time>
      </trkpt>
      <trkpt lat="42.92901" lon="0.17795">
        <ele>1621</ele>
        <time>2016-07-03T20:45:21Z</time>
      </trkpt>
      <trkpt lat="42.92863" lon="0.17904">
        <ele>1601</ele>
        <time>2016-07-03T20:47:21Z</time>
      </trkpt>
      <trkpt lat="42.92859" lon="0.17953">
        <ele>1585</ele>
        <time>2016-07-03T20:49:21Z</time>
      </trkpt>
      <trkpt lat="42.92836" lon="0.18036">
        <ele>1572</ele>
        <time>2016-07-03T20:51:21Z</time>
      </trkpt>
      <trkpt lat="42.92831" lon="0.18134">
        <ele>1574</ele>
        <time>2016-07-03T20:53:21Z</time>
      </trkpt>
      <trkpt lat="42.92831" lon="0.18125">
        <ele>1575</ele>
        <time>2016-07-03T20:55:21Z</time>
      </trkpt>
      <trkpt lat="42.92831" lon="0.18138">
        <ele>1574</ele>
        <time>2016-07-03T20:57:21Z</time>
      </trkpt>
      <trkpt lat="42.92789" lon="0.18198">
        <ele>1569</ele>
        <time>2016-07-03T20:59:21Z</time>
      </trkpt>
      <trkpt lat="42.92705" lon="0.18245">
        <ele>1588</ele>
        <time>2016-07-03T21:01:21Z</time>
      </trkpt>
      <trkpt lat="42.9263" lon="0.18282">
        <ele>1607</ele>
        <time>2016-07-03T21:03:21Z</time>
      </trkpt>
      <trkpt lat="42.92571" lon="0.18357">
        <ele>1630</ele>
        <time>2016-07-03T21:05:21Z</time>
      </trkpt>
      <trkpt lat="42.92461" lon="0.1847">
        <ele>1653</ele>
        <time>2016-07-03T21:07:21Z</time>
      </trkpt>
      <trkpt lat="42.92376" lon="0.18537">
        <ele>1666</ele>
        <time>2016-07-03T21:09:21Z</time>
      </trkpt>
      <trkpt lat="42.9228" lon="0.186">
        <ele>1667</ele>
        <time>2016-07-03T21:11:21Z</time>
      </trkpt>
      <trkpt lat="42.92227" lon="0.18615">
        <ele>1676</ele>
        <time>2016-07-03T21:13:21Z</time>
      </trkpt>
      <trkpt lat="42.92176" lon="0.18673">
        <ele>1661</ele>
        <time>2016-07-03T21:15:21Z</time>
      </trkpt>
      <trkpt lat="42.92099" lon="0.18653">
        <ele>1658</ele>
        <time>2016-07-03T21:17:21Z</time>
      </trkpt>
      <trkpt lat="42.92003" lon="0.18557">
        <ele>1660</ele>
        <time>2016-07-03T21:19:21Z</time>
      </trkpt>
      <trkpt lat="42.91887" lon="0.18537">
        <ele>1631</ele>
        <time>2016-07-03T21:21:21Z</time>
      </trkpt>
      <trkpt lat="42.91768" lon="0.18505">
        <ele>1619</ele>
        <time>2016-07-03T21:23:21Z</time>
      </trkpt>
      <trkpt lat="42.91659" lon="0.1841">
        <ele>1638</ele>
        <time>2016-07-03T21:25:21Z</time>
      </trkpt>
      <trkpt lat="42.91604" lon="0.18328">
        <ele>1656</ele>
        <time>2016-07-03T21:27:21Z</time>
      </trkpt>
      <trkpt lat="42.91607" lon="0.18282">
        <ele>1666</ele>
        <time>2016-07-03T21:29:21Z</time>
      </trkpt>
      <trkpt lat="42.91579" lon="0.18252">
        <ele>1661</ele>
        <time>2016-07-03T21:31:21Z</time>
      </trkpt>
      <trkpt lat="42.91499" lon="0.18213">
        <ele>1659</ele>
        <time>2016-07-03T21:33:21Z</time>
      </trkpt>
      <trkpt lat="42.91469" lon="0.1814">
        <ele>1690</ele>
        <time>2016-07-03T21:35:21Z</time>
      </trkpt>
      <trkpt lat="42.9141" lon="0.18097">
        <ele>1694</ele>
        <time>2016-07-03T21:37:21Z</time>
      </trkpt>
      <trkpt lat="42.91364" lon="0.18042">
        <ele>1722</ele>
        <time>2016-07-03T21:39:21Z</time>
      </trkpt>
      <trkpt lat="42.91276" lon="0.18073">
        <ele>1719</ele>
        <time>2016-07-03T21:41:21Z</time>
      </trkpt>
      <trkpt lat="42.91245" lon="0.18051">
        <ele>1734</ele>
        <time>2016-07-03T21:43:21Z</time>
      </trkpt>
      <trkpt lat="42.9119" lon="0.18069">
        <ele>1740</ele>
        <time>2016-07-03T21:45:21Z</time>
      </trkpt>
      <trkpt lat="42.91149" lon="0.18089">
        <ele>1736</ele>
        <time>2016-07-03T21:47:21Z</time>
      </trkpt>
      <trkpt lat="42.91079" lon="0.18143">
        <ele>1733</ele>
        <time>2016-07-03T21:49:21Z</time>
      </trkpt>
      <trkpt lat="42.9103" lon="0.18093">
        <ele>1737</ele>
        <time>2016-07-03T21:51:21Z</time>
      </trkpt>
      <trkpt lat="42.91021" lon="0.18148">
        <ele>1734</ele>
        <time>2016-07-03T21:53:21Z</time>
      </trkpt>
      <trkpt lat="42.91" lon="0.18157">
        <ele>1735</ele>
        <time>2016-07-03T21:55:21Z</time>
      </trkpt>
      <trkpt lat="42.91028" lon="0.18204">
        <ele>1730</ele>
        <time>2016-07-03T21:57:21Z</time>
      </trkpt>
      <trkpt lat="42.91042" lon="0.18312">
        <ele>1734</ele>
        <time>2016-07-03T21:59:21Z</time>
      </trkpt>
      <trkpt lat="42.9106" lon="0.1838">
        <ele>1742</ele>
        <time>2016-07-03T22:01:21Z</time>
      </trkpt>
      <trkpt lat="42.91066" lon="0.18442">
        <ele>1754</ele>
        <time>2016-07-03T22:03:21Z</time>
      </trkpt>
      <trkpt lat="42.91138" lon="0.18488">
        <ele>1730</ele>
        <time>2016-07-03T22:05:21Z</time>
      </trkpt>
      <trkpt lat="42.91156" lon="0.18556">
        <ele>1751</ele>
        <time>2016-07-03T22:07:21Z</time>
      </trkpt>
      <trkpt lat="42.91222" lon="0.18584">
        <ele>1738</ele>
        <time>2016-07-03T22:09:21Z</time>
      </trkpt>
      <trkpt lat="42.91296" lon="0.18561">
        <ele>1687</ele>
        <time>2016-07-03T22:11:21Z</time>
      </trkpt>
      <trkpt lat="42.91324" lon="0.1861">
        <ele>1696</ele>
        <time>2016-07-03T22:13:21Z</time>
      </trkpt>
      <trkpt lat="42.91341" lon="0.1867">
        <ele>1692</ele>
        <time>2016-07-03T22:15:21Z</time>
      </trkpt>
      <trkpt lat="42.91436" lon="0.18702">
        <ele>1668</ele>
        <time>2016-07-03T22:17:21Z</time>
      </trkpt>
      <trkpt lat="42.9148" lon="0.18742">
        <ele>1669</ele>
        <time>2016-07-03T22:19:21Z</time>
      </trkpt>
      <trkpt lat="42.91522" lon="0.18739">
        <ele>1652</ele>
        <time>2016-07-03T22:21:21Z</time>
      </trkpt>
      <trkpt lat="42.91567" lon="0.18737">
        <ele>1641</ele>
        <time>2016-07-03T22:23:21Z</time>
      </trkpt>
      <trkpt lat="42.91599" lon="0.18783">
        <ele>1636</ele>
        <time>2016-07-03T22:25:21Z</time>
      </trkpt>
      <trkpt lat="42.91603" lon="0.18815">
        <ele>1640</ele>
        <time>2016-07-03T22:27:21Z</time>
      </trkpt>
      <trkpt lat="42.9165" lon="0.18873">
        <ele>1650</ele>
        <time>2016-07-03T22:29:21Z</time>
      </trkpt>
      <trkpt lat="42.91683" lon="0.1889">
        <ele>1633</ele>
        <time>2016-07-03T22:31:21Z</time>
      </trkpt>
      <trkpt lat="42.91723" lon="0.1891">
        <ele>1626</ele>
        <time>2016-07-03T22:33:21Z</time>
      </trkpt>
      <trkpt lat="42.91743" lon="0.1893">
        <ele>1633</ele>
        <time>2016-07-03T22:35:21Z</time>
      </trkpt>
      <trkpt lat="42.9178" lon="0.18975">
        <ele>1621</ele>
        <time>2016-07-03T22:37:21Z</time>
      </trkpt>
      <trkpt lat="42.9181" lon="0.19018">
        <ele>1623</ele>
        <time>2016-07-03T22:39:21Z</time>
      </trkpt>
      <trkpt lat="42.91834" lon="0.19037">
        <ele>1605</ele>
        <time>2016-07-03T22:41:21Z</time>
      </trkpt>
      <trkpt lat="42.91851" lon="0.19051">
        <ele>1605</ele>
        <time>2016-07-03T22:43:21Z</time>
      </trkpt>
      <trkpt lat="42.91883" lon="0.19145">
        <ele>1615</ele>
        <time>2016-07-03T22:45:21Z</time>
      </trkpt>
      <trkpt lat="42.91881" lon="0.1924">
        <ele>1625</ele>
        <time>2016-07-03T22:47:21Z</time>
      </trkpt>
      <trkpt lat="42.91887" lon="0.1933">
        <ele>1629</ele>
        <time>2016-07-03T22:49:21Z</time>
      </trkpt>
      <trkpt lat="42.91883" lon="0.19429">
        <ele>1647</ele>
        <time>2016-07-03T22:51:21Z</time>
      </trkpt>
      <trkpt lat="42.91893" lon="0.19521">
        <ele>1657</ele>
        <time>2016-07-03T22:53:21Z</time>
      </trkpt>
      <trkpt lat="42.91898" lon="0.19617">
        <ele>1674</ele>
        <time>2016-07-03T22:55:21Z</time>
      </trkpt>
      <trkpt lat="42.91902" lon="0.19686">
        <ele>1687</ele>
        <time>2016-07-03T22:57:21Z</time>
      </trkpt>
      <trkpt lat="42.91941" lon="0.19756">
        <ele>1676</ele>
        <time>2016-07-03T22:59:21Z</time>
      </trkpt>
      <trkpt lat="42.91967" lon="0.19848">
        <ele>1690</ele>
        <time>2016-07-03T23:01:21Z</time>
      </trkpt>
      <trkpt lat="42.91981" lon="0.19946">
        <ele>1704</ele>
        <time>2016-07-03T23:03:21Z</time>
      </trkpt>
      <trkpt lat="42.92003" lon="0.20066">
        <ele>1680</ele>
        <time>2016-07-03T23:05:21Z</time>
      </trkpt>
      <trkpt lat="42.91968" lon="0.20103">
        <ele>1705</ele>
        <time>2016-07-03T23:07:21Z</time>
      </trkpt>
      <trkpt lat="42.91927" lon="0.20162">
        <ele>1712</ele>
        <time>2016-07-03T23:09:21Z</time>
      </trkpt>
      <trkpt lat="42.91871" lon="0.20211">
        <ele>1721</ele>
        <time>2016-07-03T23:11:21Z</time>
      </trkpt>
      <trkpt lat="42.91818" lon="0.20253">
        <ele>1721</ele>
        <time>2016-07-03T23:13:21Z</time>
      </trkpt>
      <trkpt lat="42.91763" lon="0.2029">
        <ele>1724</ele>
        <time>2016-07-03T23:15:21Z</time>
      </trkpt>
      <trkpt lat="42.91707" lon="0.2033">
        <ele>1747</ele>
        <time>2016-07-03T23:17:21Z</time>
      </trkpt>
      <trkpt lat="42.91656" lon="0.20374">
        <ele>1735</ele>
        <time>2016-07-03T23:19:21Z</time>
      </trkpt>
      <trkpt lat="42.91584" lon="0.20414">
        <ele>1728</ele>
        <time>2016-07-03T23:21:21Z</time>
      </trkpt>
      <trkpt lat="42.91523" lon="0.20343">
        <ele>1737</ele>
        <time>2016-07-03T23:23:21Z</time>
      </trkpt>
      <trkpt lat="42.91461" lon="0.20356">
        <ele>1733</ele>
        <time>2016-07-03T23:25:21Z</time>
      </trkpt>
      <trkpt lat="42.91424" lon="0.20419">
        <ele>1716</ele>
        <time>2016-07-03T23:27:21Z</time>
      </trkpt>
      <trkpt lat="42.91402" lon="0.20487">
        <ele>1704</ele>
        <time>2016-07-03T23:29:21Z</time>
      </trkpt>
      <trkpt lat="42.91351" lon="0.20552">
        <ele>1685</ele>
        <time>2016-07-03T23:31:21Z</time>
      </trkpt>
      <trkpt lat="42.9132" lon="0.20625">
        <ele>1675</ele>
        <time>2016-07-03T23:33:21Z</time>
      </trkpt>
      <trkpt lat="42.91284" lon="0.20688">
        <ele>1650</ele>
        <time>2016-07-03T23:35:21Z</time>
      </trkpt>
      <trkpt lat="42.91235" lon="0.20751">
        <ele>1643</ele>
        <time>2016-07-03T23:37:21Z</time>
      </trkpt>
      <trkpt lat="42.91194" lon="0.20815">
        <ele>1642</ele>
        <time>2016-07-03T23:39:21Z</time>
      </trkpt>
      <trkpt lat="42.91156" lon="0.20881">
        <ele>1642</ele>
        <time>2016-07-03T23:41:21Z</time>
      </trkpt>
      <trkpt lat="42.9111" lon="0.20933">
        <ele>1628</ele>
        <time>2016-07-03T23:43:21Z</time>
      </trkpt>
      <trkpt lat="42.91082" lon="0.21012">
        <ele>1620</ele>
        <time>2016-07-03T23:45:21Z</time>
      </trkpt>
      <trkpt lat="42.91057" lon="0.21095">
        <ele>1600</ele>
        <time>2016-07-03T23:47:21Z</time>
      </trkpt>
      <trkpt lat="42.91041" lon="0.21142">
        <ele>1600</ele>
        <time>2016-07-03T23:49:21Z</time>
      </trkpt>
      <trkpt lat="42.91018" lon="0.21201">
        <ele>1594</ele>
        <time>2016-07-03T23:51:21Z</time>
      </trkpt>
      <trkpt lat="42.90961" lon="0.21179">
        <ele>1604</ele>
        <time>2016-07-03T23:53:21Z</time>
      </trkpt>
      <trkpt lat="42.90915" lon="0.21235">
        <ele>1591</ele>
        <time>2016-07-03T23:55:21Z</time>
      </trkpt>
      <trkpt lat="42.90709" lon="0.2119">
        <ele>1602</ele>
        <time>2016-07-03T23:57:21Z</time>
      </trkpt>
      <trkpt lat="42.90851" lon="0.21576">
        <ele>1610</ele>
        <time>2016-07-03T23:59:21Z</time>
      </trkpt>
      <trkpt lat="42.90929" lon="0.21842">
        <ele>1660</ele>
        <time>2016-07-04T00:01:21Z</time>
      </trkpt>
      <trkpt lat="42.91121" lon="0.22014">
        <ele>1685</ele>
        <time>2016-07-04T00:03:21Z</time>
      </trkpt>
      <trkpt lat="42.91354" lon="0.22151">
        <ele>1698</ele>
        <time>2016-07-04T00:05:21Z</time>
      </trkpt>
      <trkpt lat="42.91605" lon="0.22164">
        <ele>1712</ele>
        <time>2016-07-04T00:07:21Z</time>
      </trkpt>
      <trkpt lat="42.91995" lon="0.22409">
        <ele>1807</ele>
        <time>2016-07-04T00:09:21Z</time>
      </trkpt>
      <trkpt lat="42.91753" lon="0.22507">
        <ele>1809</ele>
        <time>2016-07-04T00:11:21Z</time>
      </trkpt>
      <trkpt lat="42.91479" lon="0.22752">
        <ele>1797</ele>
        <time>2016-07-04T00:13:21Z</time>
      </trkpt>
      <trkpt lat="42.9125" lon="0.22812">
        <ele>1810</ele>
        <time>2016-07-04T00:15:21Z</time>
      </trkpt>
      <trkpt lat="42.91382" lon="0.23314">
        <ele>1783</ele>
        <time>2016-07-04T00:17:21Z</time>
      </trkpt>
      <trkpt lat="42.91489" lon="0.23688">
        <ele>1768</ele>
        <time>2016-07-04T00:19:21Z</time>
      </trkpt>
      <trkpt lat="42.91153" lon="0.23821">
        <ele>1755</ele>
        <time>2016-07-04T00:21:21Z</time>
      </trkpt>
      <trkpt lat="42.91058" lon="0.23881">
        <ele>1729</ele>
        <time>2016-07-04T00:23:21Z</time>
      </trkpt>
      <trkpt lat="42.90923" lon="0.23786">
        <ele>1729</ele>
        <time>2016-07-04T00:25:21Z</time>
      </trkpt>
      <trkpt lat="42.90687" lon="0.23842">
        <ele>1683</ele>
        <time>2016-07-04T00:27:21Z</time>
      </trkpt>
      <trkpt lat="42.90653" lon="0.24018">
        <ele>1672</ele>
        <time>2016-07-04T00:29:21Z</time>
      </trkpt>
      <trkpt lat="42.90568" lon="0.24009">
        <ele>1685</ele>
        <time>2016-07-04T00:31:21Z</time>
      </trkpt>
      <trkpt lat="42.90514" lon="0.24151">
        <ele>1702</ele>
        <time>2016-07-04T00:33:21Z</time>
      </trkpt>
      <trkpt lat="42.90524" lon="0.24447">
        <ele>1718</ele>
        <time>2016-07-04T00:35:21Z</time>
      </trkpt>
      <trkpt lat="42.90609" lon="0.24769">
        <ele>1716</ele>
        <time>2016-07-04T00:37:21Z</time>
      </trkpt>
      <trkpt lat="42.9065" lon="0.25121">
        <ele>1750</ele>
        <time>2016-07-04T00:39:21Z</time>
      </trkpt>
      <trkpt lat="42.907" lon="0.25426">
        <ele>1792</ele>
        <time>2016-07-04T00:41:21Z</time>
      </trkpt>
      <trkpt lat="42.90621" lon="0.25662">
        <ele>1869</ele>
        <time>2016-07-04T00:43:21Z</time>
      </trkpt>
      <trkpt lat="42.90395" lon="0.25984">
        <ele>1824</ele>
        <time>2016-07-04T00:45:21Z</time>
      </trkpt>
      <trkpt lat="42.90288" lon="0.26198">
        <ele>1774</ele>
        <time>2016-07-04T00:47:21Z</time>
      </trkpt>
      <trkpt lat="42.90197" lon="0.26434">
        <ele>1764</ele>
        <time>2016-07-04T00:49:21Z</time>
      </trkpt>
      <trkpt lat="42.90087" lon="0.26649">
        <ele>1772</ele>
        <time>2016-07-04T00:51:21Z</time>
      </trkpt>
      <trkpt lat="42.90071" lon="0.26756">
        <ele>1773</ele>
        <time>2016-07-04T00:53:21Z</time>
      </trkpt>
      <trkpt lat="42.89993" lon="0.26919">
        <ele>1776</ele>
        <time>2016-07-04T00:55:21Z</time>
      </trkpt>
      <trkpt lat="42.89993" lon="0.27112">
        <ele>1763</ele>
        <time>2016-07-04T00:57:21Z</time>
      </trkpt>
      <trkpt lat="42.89864" lon="0.27086">
        <ele>1775</ele>
        <time>2016-07-04T00:59:21Z</time>
      </trkpt>
      <trkpt lat="42.89757" lon="0.26988">
        <ele>1808</ele>
        <time>2016-07-04T01:01:21Z</time>
      </trkpt>
      <trkpt lat="42.89596" lon="0.26966">
        <ele>1802</ele>
        <time>2016-07-04T01:03:21Z</time>
      </trkpt>
      <trkpt lat="42.89697" lon="0.27164">
        <ele>1746</ele>
        <time>2016-07-04T01:05:21Z</time>
      </trkpt>
      <trkpt lat="42.89672" lon="0.2737">
        <ele>1724</ele>
        <time>2016-07-04T01:07:21Z</time>
      </trkpt>
      <trkpt lat="42.89628" lon="0.27563">
        <ele>1689</ele>
        <time>2016-07-04T01:09:21Z</time>
      </trkpt>
      <trkpt lat="42.89647" lon="0.28078">
        <ele>1643</ele>
        <time>2016-07-04T01:11:21Z</time>
      </trkpt>
      <trkpt lat="42.8965" lon="0.28288">
        <ele>1634</ele>
        <time>2016-07-04T01:13:21Z</time>
      </trkpt>
      <trkpt lat="42.89609" lon="0.28387">
        <ele>1632</ele>
        <time>2016-07-04T01:15:21Z</time>
      </trkpt>
      <trkpt lat="42.89612" lon="0.28584">
        <ele>1638</ele>
        <time>2016-07-04T01:17:21Z</time>
      </trkpt>
      <trkpt lat="42.89681" lon="0.2885">
        <ele>1611</ele>
        <time>2016-07-04T01:19:21Z</time>
      </trkpt>
      <trkpt lat="42.89691" lon="0.29086">
        <ele>1637</ele>
        <time>2016-07-04T01:21:21Z</time>
      </trkpt>
      <trkpt lat="42.89606" lon="0.29232">
        <ele>1637</ele>
        <time>2016-07-04T01:23:21Z</time>
      </trkpt>
      <trkpt lat="42.89744" lon="0.29443">
        <ele>1621</ele>
        <time>2016-07-04T01:25:21Z</time>
      </trkpt>
      <trkpt lat="42.89993" lon="0.29601">
        <ele>1606</ele>
        <time>2016-07-04T01:27:21Z</time>
      </trkpt>
      <trkpt lat="42.89958" lon="0.29837">
        <ele>1588</ele>
        <time>2016-07-04T01:29:21Z</time>
      </trkpt>
      <trkpt lat="42.89776" lon="0.30142">
        <ele>1588</ele>
        <time>2016-07-04T01:31:21Z</time>
      </trkpt>
      <trkpt lat="42.89895" lon="0.30305">
        <ele>1572</ele>
        <time>2016-07-04T01:33:21Z</time>
      </trkpt>
      <trkpt lat="42.90002" lon="0.30481">
        <ele>1556</ele>
        <time>2016-07-04T01:35:21Z</time>
      </trkpt>
      <trkpt lat="42.89976" lon="0.30449">
        <ele>1570</ele>
        <time>2016-07-04T01:37:21Z</time>
      </trkpt>
      <trkpt lat="42.90014" lon="0.30538">
        <ele>1557</ele>
        <time>2016-07-04T01:39:21Z</time>
      </trkpt>
      <trkpt lat="42.89954" lon="0.30591">
        <ele>1560</ele>
        <time>2016-07-04T01:41:21Z</time>
      </trkpt>
      <trkpt lat="42.89874" lon="0.3068">
        <ele>1566</ele>
        <time>2016-07-04T01:43:21Z</time>
      </trkpt>
      <trkpt lat="42.89814" lon="0.31088">
        <ele>1541</ele>
        <time>2016-07-04T01:45:21Z</time>
      </trkpt>
      <trkpt lat="42.89813" lon="0.31097">
        <ele>1543</ele>
        <time>2016-07-04T01:47:21Z</time>
      </trkpt>
      <trkpt lat="42.89807" lon="0.31163">
        <ele>1540</ele>
        <time>2016-07-04T01:49:21Z</time>
      </trkpt>
      <trkpt lat="42.89766" lon="0.31277">
        <ele>1536</ele>
        <time>2016-07-04T01:51:21Z</time>
      </trkpt>
      <trkpt lat="42.89718" lon="0.31538">
        <ele>1542</ele>
        <time>2016-07-04T01:53:21Z</time>
      </trkpt>
      <trkpt lat="42.89715" lon="0.31546">
        <ele>1542</ele>
        <time>2016-07-04T01:55:21Z</time>
      </trkpt>
      <trkpt lat="42.89604" lon="0.31813">
        <ele>1525</ele>
        <time>2016-07-04T01:57:21Z</time>
      </trkpt>
      <trkpt lat="42.89537" lon="0.319">
        <ele>1524</ele>
        <time>2016-07-04T01:59:21Z</time>
      </trkpt>
      <trkpt lat="42.89425" lon="0.31972">
        <ele>1514</ele>
        <time>2016-07-04T02:01:21Z</time>
      </trkpt>
      <trkpt lat="42.89342" lon="0.3188">
        <ele>1513</ele>
        <time>2016-07-04T02:03:21Z</time>
      </trkpt>
      <trkpt lat="42.89229" lon="0.31742">
        <ele>1489</ele>
        <time>2016-07-04T02:05:21Z</time>
      </trkpt>
      <trkpt lat="42.89189" lon="0.31652">
        <ele>1494</ele>
        <time>2016-07-04T02:07:21Z</time>
      </trkpt>
      <trkpt lat="42.89142" lon="0.31568">
        <ele>1476</ele>
        <time>2016-07-04T02:09:21Z</time>
      </trkpt>
      <trkpt lat="42.89092" lon="0.31398">
        <ele>1481</ele>
        <time>2016-07-04T02:11:21Z</time>
      </trkpt>
      <trkpt lat="42.89009" lon="0.31355">
        <ele>1465</ele>
        <time>2016-07-04T02:13:21Z</time>
      </trkpt>
      <trkpt lat="42.88879" lon="0.31443">
        <ele>1418</ele>
        <time>2016-07-04T02:15:21Z</time>
      </trkpt>
      <trkpt lat="42.88783" lon="0.31652">
        <ele>1379</ele>
        <time>2016-07-04T02:17:21Z</time>
      </trkpt>
      <trkpt lat="42.88719" lon="0.3175">
        <ele>1359</ele>
        <time>2016-07-04T02:19:21Z</time>
      </trkpt>
      <trkpt lat="42.88649" lon="0.31904">
        <ele>1333</ele>
        <time>2016-07-04T02:21:21Z</time>
      </trkpt>
      <trkpt lat="42.88637" lon="0.31939">
        <ele>1328</ele>
        <time>2016-07-04T02:23:21Z</time>
      </trkpt>
      <trkpt lat="42.88613" lon="0.31987">
        <ele>1319</ele>
        <time>2016-07-04T02:25:21Z</time>
      </trkpt>
      <trkpt lat="42.88608" lon="0.32029">
        <ele>1317</ele>
        <time>2016-07-04T02:27:21Z</time>
      </trkpt>
      <trkpt lat="42.88583" lon="0.32135">
        <ele>1293</ele>
        <time>2016-07-04T02:29:21Z</time>
      </trkpt>
      <trkpt lat="42.88557" lon="0.32102">
        <ele>1287</ele>
        <time>2016-07-04T02:31:21Z</time>
      </trkpt>
      <trkpt lat="42.88532" lon="0.3196">
        <ele>1274</ele>
        <time>2016-07-04T02:33:21Z</time>
      </trkpt>
      <trkpt lat="42.8853" lon="0.31932">
        <ele>1272</ele>
        <time>2016-07-04T02:35:21Z</time>
      </trkpt>
      <trkpt lat="42.88528" lon="0.31886">
        <ele>1268</ele>
        <time>2016-07-04T02:37:21Z</time>
      </trkpt>
      <trkpt lat="42.88523" lon="0.31858">
        <ele>1265</ele>
        <time>2016-07-04T02:39:21Z</time>
      </trkpt>
      <trkpt lat="42.8853" lon="0.31821">
        <ele>1258</ele>
        <time>2016-07-04T02:41:21Z</time>
      </trkpt>
      <trkpt lat="42.88563" lon="0.3156">
        <ele>1233</ele>
        <time>2016-07-04T02:43:21Z</time>
      </trkpt>
      <trkpt lat="42.88515" lon="0.31362">
        <ele>1228</ele>
        <time>2016-07-04T02:45:21Z</time>
      </trkpt>
      <trkpt lat="42.88407" lon="0.31428">
        <ele>1217</ele>
        <time>2016-07-04T02:47:21Z</time>
      </trkpt>
      <trkpt lat="42.88348" lon="0.31441">
        <ele>1229</ele>
        <time>2016-07-04T02:49:21Z</time>
      </trkpt>
      <trkpt lat="42.88319" lon="0.31525">
        <ele>1223</ele>
        <time>2016-07-04T02:51:21Z</time>
      </trkpt>
      <trkpt lat="42.88259" lon="0.31621">
        <ele>1205</ele>
        <time>2016-07-04T02:53:21Z</time>
      </trkpt>
      <trkpt lat="42.88339" lon="0.31582">
        <ele>1193</ele>
        <time>2016-07-04T02:55:21Z</time>
      </trkpt>
      <trkpt lat="42.88274" lon="0.31691">
        <ele>1177</ele>
        <time>2016-07-04T02:57:21Z</time>
      </trkpt>
      <trkpt lat="42.88256" lon="0.31744">
        <ele>1169</ele>
        <time>2016-07-04T02:59:21Z</time>
      </trkpt>
      <trkpt lat="42.88224" lon="0.31817">
        <ele>1158</ele>
        <time>2016-07-04T03:01:21Z</time>
      </trkpt>
      <trkpt lat="42.8819" lon="0.31922">
        <ele>1119</ele>
        <time>2016-07-04T03:03:21Z</time>
      </trkpt>
      <trkpt lat="42.88134" lon="0.32077">
        <ele>1087</ele>
        <time>2016-07-04T03:05:21Z</time>
      </trkpt>
      <trkpt lat="42.88049" lon="0.32139">
        <ele>1077</ele>
        <time>2016-07-04T03:07:21Z</time>
      </trkpt>
      <trkpt lat="42.88119" lon="0.32168">
        <ele>1069</ele>
        <time>2016-07-04T03:09:21Z</time>
      </trkpt>
      <trkpt lat="42.88046" lon="0.323">
        <ele>1049</ele>
        <time>2016-07-04T03:11:21Z</time>
      </trkpt>
      <trkpt lat="42.88013" lon="0.32375">
        <ele>1044</ele>
        <time>2016-07-04T03:13:21Z</time>
      </trkpt>
      <trkpt lat="42.87928" lon="0.32534">
        <ele>1020</ele>
        <time>2016-07-04T03:15:21Z</time>
      </trkpt>
      <trkpt lat="42.87874" lon="0.32651">
        <ele>1000</ele>
        <time>2016-07-04T03:17:21Z</time>
      </trkpt>
      <trkpt lat="42.87771" lon="0.32805">
        <ele>974</ele>
        <time>2016-07-04T03:19:21Z</time>
      </trkpt>
      <trkpt lat="42.8764" lon="0.33093">
        <ele>941</ele>
        <time>2016-07-04T03:21:21Z</time>
      </trkpt>
      <trkpt lat="42.87529" lon="0.33242">
        <ele>926</ele>
        <time>2016-07-04T03:23:21Z</time>
      </trkpt>
      <trkpt lat="42.87424" lon="0.3342">
        <ele>875</ele>
        <time>2016-07-04T03:25:21Z</time>
      </trkpt>
      <trkpt lat="42.87365" lon="0.33454">
        <ele>866</ele>
        <time>2016-07-04T03:27:21Z</time>
      </trkpt>
      <trkpt lat="42.87306" lon="0.33542">
        <ele>842</ele>
        <time>2016-07-04T03:29:21Z</time>
      </trkpt>
      <trkpt lat="42.87199" lon="0.33667">
        <ele>803</ele>
        <time>2016-07-04T03:31:21Z</time>
      </trkpt>
      <trkpt lat="42.87058" lon="0.33567">
        <ele>836</ele>
        <time>2016-07-04T03:33:21Z</time>
      </trkpt>
      <trkpt lat="42.86877" lon="0.33671">
        <ele>824</ele>
        <time>2016-07-04T03:35:21Z</time>
      </trkpt>
      <trkpt lat="42.86819" lon="0.33652">
        <ele>835</ele>
        <time>2016-07-04T03:37:21Z</time>
      </trkpt>
      <trkpt lat="42.86777" lon="0.33484">
        <ele>872</ele>
        <time>2016-07-04T03:39:21Z</time>
      </trkpt>
      <trkpt lat="42.86619" lon="0.333">
        <ele>864</ele>
        <time>2016-07-04T03:41:21Z</time>
      </trkpt>
      <trkpt lat="42.86538" lon="0.33045">
        <ele>854</ele>
        <time>2016-07-04T03:43:21Z</time>
      </trkpt>
      <trkpt lat="42.86499" lon="0.33001">
        <ele>851</ele>
        <time>2016-07-04T03:45:21Z</time>
      </trkpt>
      <trkpt lat="42.86487" lon="0.32996">
        <ele>855</ele>
        <time>2016-07-04T03:47:21Z</time>
      </trkpt>
      <trkpt lat="42.86477" lon="0.32991">
        <ele>856</ele>
        <time>2016-07-04T03:49:21Z</time>
      </trkpt>
      <trkpt lat="42.86442" lon="0.32969">
        <ele>856</ele>
        <time>2016-07-04T03:51:21Z</time>
      </trkpt>
      <trkpt lat="42.86372" lon="0.32918">
        <ele>859</ele>
        <time>2016-07-04T03:53:21Z</time>
      </trkpt>
      <trkpt lat="42.86219" lon="0.32676">
        <ele>881</ele>
        <time>2016-07-04T03:55:21Z</time>
      </trkpt>
      <trkpt lat="42.86144" lon="0.32713">
        <ele>914</ele>
        <time>2016-07-04T03:57:21Z</time>
      </trkpt>
      <trkpt lat="42.86297" lon="0.3298">
        <ele>893</ele>
        <time>2016-07-04T03:59:21Z</time>
      </trkpt>
      <trkpt lat="42.86239" lon="0.33263">
        <ele>919</ele>
        <time>2016-07-04T04:01:21Z</time>
      </trkpt>
      <trkpt lat="42.86207" lon="0.33315">
        <ele>924</ele>
        <time>2016-07-04T04:03:21Z</time>
      </trkpt>
      <trkpt lat="42.85641" lon="0.33881">
        <ele>848</ele>
        <time>2016-07-04T04:05:21Z</time>
      </trkpt>
      <trkpt lat="42.85544" lon="0.33966">
        <ele>824</ele>
        <time>2016-07-04T04:07:21Z</time>
      </trkpt>
      <trkpt lat="42.85414" lon="0.34037">
        <ele>804</ele>
        <time>2016-07-04T04:09:21Z</time>
      </trkpt>
      <trkpt lat="42.8524" lon="0.34133">
        <ele>771</ele>
        <time>2016-07-04T04:11:21Z</time>
      </trkpt>
      <trkpt lat="42.85001" lon="0.34137">
        <ele>775</ele>
        <time>2016-07-04T04:13:21Z</time>
      </trkpt>
      <trkpt lat="42.84794" lon="0.3406">
        <ele>782</ele>
        <time>2016-07-04T04:15:21Z</time>
      </trkpt>
      <trkpt lat="42.84559" lon="0.33916">
        <ele>773</ele>
        <time>2016-07-04T04:17:21Z</time>
      </trkpt>
      <trkpt lat="42.8444" lon="0.34009">
        <ele>771</ele>
        <time>2016-07-04T04:19:21Z</time>
      </trkpt>
      <trkpt lat="42.84208" lon="0.33967">
        <ele>772</ele>
        <time>2016-07-04T04:21:21Z</time>
      </trkpt>
      <trkpt lat="42.84092" lon="0.33827">
        <ele>773</ele>
        <time>2016-07-04T04:23:21Z</time>
      </trkpt>
      <trkpt lat="42.84064" lon="0.33805">
        <ele>773</ele>
        <time>2016-07-04T04:25:21Z</time>
      </trkpt>
      <trkpt lat="42.84053" lon="0.3379">
        <ele>773</ele>
        <time>2016-07-04T04:27:21Z</time>
      </trkpt>
      <trkpt lat="42.83918" lon="0.33669">
        <ele>777</ele>
        <time>2016-07-04T04:29:21Z</time>
      </trkpt>
      <trkpt lat="42.8381" lon="0.33265">
        <ele>786</ele>
        <time>2016-07-04T04:31:21Z</time>
      </trkpt>
      <trkpt lat="42.83634" lon="0.33101">
        <ele>785</ele>
        <time>2016-07-04T04:33:21Z</time>
      </trkpt>
      <trkpt lat="42.83556" lon="0.33049">
        <ele>786</ele>
        <time>2016-07-04T04:35:21Z</time>
      </trkpt>
      <trkpt lat="42.83465" lon="0.33004">
        <ele>786</ele>
        <time>2016-07-04T04:37:21Z</time>
      </trkpt>
      <trkpt lat="42.83182" lon="0.32931">
        <ele>790</ele>
        <time>2016-07-04T04:39:21Z</time>
      </trkpt>
      <trkpt lat="42.83055" lon="0.32902">
        <ele>792</ele>
        <time>2016-07-04T04:41:21Z</time>
      </trkpt>
      <trkpt lat="42.8299" lon="0.32853">
        <ele>793</ele>
        <time>2016-07-04T04:43:21Z</time>
      </trkpt>
      <trkpt lat="42.82985" lon="0.32701">
        <ele>794</ele>
        <time>2016-07-04T04:45:21Z</time>
      </trkpt>
    </trkseg>
  </trk>
</gpx>